PWSweather.com
Personal Weather Stations
Station Observations
KCOFALCO8
Falcon Hills, Falcon, CO 80831

Falcon HillsFalcon, CO 80831

Lat: 38.979792, Lon: -104.61195

Elevation: 7170

Station Type: AcuRite Pro 5-in-1

http://wx.frazierhome.net/

Latest ConditionsUpdated 9:32:05 AM MDT Sunday, Sep 22, 2019
Currently Today's Max Today's Min Today's Average
Temperature 50.7°F10.4°C 50.7°F10.4°C 36.2°F2.3°C 42.8°F6.0°C
Dew Point 40.4°F4.7°C 40.8°F4.9°C 35.0°F1.7°C 38.3°F3.5°C
Winds 7.0 mph SSW11.3 kmh SSW 17.0 mph -27.4 kmh - - 5.0 mph 8.0 kmh
Wind Gusts -- -- - -
Humidity 68% 98% 68% 85%
Pressure 30.16 in1021.3 mb 30.16 in1021.3 mb 30.10 in1019.3 mb -
Hour Temp Dew Point Humidity Winds Wind Gusts Pressure Precip Precip Rate Daily Precip Total
09:32 AM 50.7°F10.4°C 40.4°F4.7°C 68% 7.0 mph SSW11.3 kmh SSW -- 30.16 in1021.3 mb 0.00 in0.0 mm 0.00 in0.0 mm 0.00 in0.0 mm
09:31 AM 50.5°F10.3°C 40.6°F4.8°C 69% 11.0 mph SSW17.7 kmh SSW -- 30.16 in1021.3 mb 0.00 in0.0 mm 0.00 in0.0 mm 0.00 in0.0 mm
09:30 AM 50.0°F10.0°C 40.5°F4.7°C 70% 6.0 mph SSW9.7 kmh SSW -- 30.16 in1021.3 mb 0.00 in0.0 mm 0.00 in0.0 mm 0.00 in0.0 mm
09:29 AM 50.0°F10.0°C 40.5°F4.7°C 70% 8.0 mph SSW12.9 kmh SSW -- 30.16 in1021.3 mb 0.00 in0.0 mm 0.00 in0.0 mm 0.00 in0.0 mm
09:28 AM 50.0°F10.0°C 40.5°F4.7°C 70% 5.0 mph S8.0 kmh S -- 30.16 in1021.3 mb 0.00 in0.0 mm 0.00 in0.0 mm 0.00 in0.0 mm
09:27 AM 49.8°F9.9°C 40.3°F4.6°C 70% 7.0 mph SSW11.3 kmh SSW -- 30.16 in1021.3 mb 0.00 in0.0 mm 0.00 in0.0 mm 0.00 in0.0 mm
09:26 AM 49.8°F9.9°C 40.3°F4.6°C 70% 7.0 mph S11.3 kmh S -- 30.16 in1021.3 mb 0.00 in0.0 mm 0.00 in0.0 mm 0.00 in0.0 mm
09:25 AM 49.8°F9.9°C 40.3°F4.6°C 70% 6.0 mph SW9.7 kmh SW -- 30.16 in1021.3 mb 0.00 in0.0 mm 0.00 in0.0 mm 0.00 in0.0 mm
09:24 AM 49.8°F9.9°C 40.3°F4.6°C 70% 5.0 mph S8.0 kmh S -- 30.16 in1021.3 mb 0.00 in0.0 mm 0.00 in0.0 mm 0.00 in0.0 mm
09:23 AM 49.6°F9.8°C 40.2°F4.6°C 70% 7.0 mph S11.3 kmh S -- 30.16 in1021.3 mb 0.00 in0.0 mm 0.00 in0.0 mm 0.00 in0.0 mm
09:22 AM 49.6°F9.8°C 40.2°F4.6°C 70% 6.0 mph S9.7 kmh S -- 30.16 in1021.3 mb 0.00 in0.0 mm 0.00 in0.0 mm 0.00 in0.0 mm
09:21 AM 49.8°F9.9°C 40.3°F4.6°C 70% 4.0 mph S6.4 kmh S -- 30.15 in1021.0 mb 0.00 in0.0 mm 0.00 in0.0 mm 0.00 in0.0 mm
09:20 AM 50.0°F10.0°C 40.5°F4.7°C 70% 8.0 mph S12.9 kmh S -- 30.16 in1021.3 mb 0.00 in0.0 mm 0.00 in0.0 mm 0.00 in0.0 mm
09:19 AM 50.0°F10.0°C 40.5°F4.7°C 70% 6.0 mph SW9.7 kmh SW -- 30.16 in1021.3 mb 0.00 in0.0 mm 0.00 in0.0 mm 0.00 in0.0 mm
09:18 AM 50.3°F10.2°C 40.5°F4.7°C 69% 5.0 mph SSW8.0 kmh SSW -- 30.16 in1021.3 mb 0.00 in0.0 mm 0.00 in0.0 mm 0.00 in0.0 mm
09:17 AM 50.3°F10.2°C 40.8°F4.9°C 70% 10.0 mph SSE16.1 kmh SSE -- 30.16 in1021.3 mb 0.00 in0.0 mm 0.00 in0.0 mm 0.00 in0.0 mm
09:16 AM 49.8°F9.9°C 40.3°F4.6°C 70% 3.0 mph ESE4.8 kmh ESE -- 30.16 in1021.3 mb 0.00 in0.0 mm 0.00 in0.0 mm 0.00 in0.0 mm
09:15 AM 49.4°F9.7°C 40.0°F4.4°C 70% 6.0 mph S9.7 kmh S -- 30.15 in1021.0 mb 0.00 in0.0 mm 0.00 in0.0 mm 0.00 in0.0 mm
09:14 AM 49.6°F9.8°C 40.2°F4.6°C 70% 7.0 mph SSE11.3 kmh SSE -- 30.16 in1021.3 mb 0.00 in0.0 mm 0.00 in0.0 mm 0.00 in0.0 mm
09:13 AM 49.6°F9.8°C 40.2°F4.6°C 70% 5.0 mph SSE8.0 kmh SSE -- 30.15 in1021.0 mb 0.00 in0.0 mm 0.00 in0.0 mm 0.00 in0.0 mm
09:12 AM 49.6°F9.8°C 40.2°F4.6°C 70% 5.0 mph S8.0 kmh S -- 30.15 in1021.0 mb 0.00 in0.0 mm 0.00 in0.0 mm 0.00 in0.0 mm
09:11 AM 49.6°F9.8°C 40.2°F4.6°C 70% 5.0 mph SSE8.0 kmh SSE -- 30.15 in1021.0 mb 0.00 in0.0 mm 0.00 in0.0 mm 0.00 in0.0 mm
09:10 AM 50.3°F10.2°C 40.8°F4.9°C 70% 5.0 mph S8.0 kmh S -- 30.16 in1021.3 mb 0.00 in0.0 mm 0.00 in0.0 mm 0.00 in0.0 mm
09:09 AM 50.1°F10.1°C 40.7°F4.8°C 70% 5.0 mph SSE8.0 kmh SSE -- 30.15 in1021.0 mb 0.00 in0.0 mm 0.00 in0.0 mm 0.00 in0.0 mm
09:08 AM 50.0°F10.0°C 40.5°F4.7°C 70% 4.0 mph SSE6.4 kmh SSE -- 30.16 in1021.3 mb 0.00 in0.0 mm 0.00 in0.0 mm 0.00 in0.0 mm
09:07 AM 50.0°F10.0°C 40.5°F4.7°C 70% 7.0 mph S11.3 kmh S -- 30.16 in1021.3 mb 0.00 in0.0 mm 0.00 in0.0 mm 0.00 in0.0 mm
09:06 AM 49.4°F9.7°C 40.4°F4.7°C 71% 7.0 mph S11.3 kmh S -- 30.16 in1021.3 mb 0.00 in0.0 mm 0.00 in0.0 mm 0.00 in0.0 mm
09:05 AM 49.2°F9.6°C 40.2°F4.6°C 71% 6.0 mph S9.7 kmh S -- 30.16 in1021.3 mb 0.00 in0.0 mm 0.00 in0.0 mm 0.00 in0.0 mm
09:04 AM 49.0°F9.4°C 39.5°F4.2°C 70% 4.0 mph S6.4 kmh S -- 30.16 in1021.3 mb 0.00 in0.0 mm 0.00 in0.0 mm 0.00 in0.0 mm
09:03 AM 49.2°F9.6°C 40.2°F4.6°C 71% 7.0 mph S11.3 kmh S -- 30.15 in1021.0 mb 0.00 in0.0 mm 0.00 in0.0 mm 0.00 in0.0 mm
09:02 AM 49.0°F9.4°C 40.6°F4.8°C 73% 4.0 mph SSW6.4 kmh SSW -- 30.16 in1021.3 mb 0.00 in0.0 mm 0.00 in0.0 mm 0.00 in0.0 mm
09:01 AM 48.9°F9.4°C 40.6°F4.8°C 73% 5.0 mph SSW8.0 kmh SSW -- 30.15 in1021.0 mb 0.00 in0.0 mm 0.00 in0.0 mm 0.00 in0.0 mm
09:00 AM 48.5°F9.2°C 40.2°F4.6°C 73% 7.0 mph ESE11.3 kmh ESE -- 30.16 in1021.3 mb 0.00 in0.0 mm 0.00 in0.0 mm 0.00 in0.0 mm
08:59 AM 48.4°F9.1°C 40.0°F4.4°C 73% 5.0 mph SSW8.0 kmh SSW -- 30.16 in1021.3 mb 0.00 in0.0 mm 0.00 in0.0 mm 0.00 in0.0 mm
08:58 AM 48.4°F9.1°C 40.0°F4.4°C 73% 7.0 mph S11.3 kmh S -- 30.16 in1021.3 mb 0.00 in0.0 mm 0.00 in0.0 mm 0.00 in0.0 mm
08:57 AM 48.4°F9.1°C 40.0°F4.4°C 73% 5.0 mph SSE8.0 kmh SSE -- 30.16 in1021.3 mb 0.00 in0.0 mm 0.00 in0.0 mm 0.00 in0.0 mm
08:56 AM 48.2°F9.0°C 39.9°F4.4°C 73% 4.0 mph SSE6.4 kmh SSE -- 30.16 in1021.3 mb 0.00 in0.0 mm 0.00 in0.0 mm 0.00 in0.0 mm
08:55 AM 48.4°F9.1°C 40.0°F4.4°C 73% 7.0 mph W11.3 kmh W -- 30.16 in1021.3 mb 0.00 in0.0 mm 0.00 in0.0 mm 0.00 in0.0 mm
08:54 AM 48.4°F9.1°C 40.4°F4.7°C 74% 5.0 mph S8.0 kmh S -- 30.16 in1021.3 mb 0.00 in0.0 mm 0.00 in0.0 mm 0.00 in0.0 mm
08:53 AM 48.4°F9.1°C 40.4°F4.7°C 74% 8.0 mph SW12.9 kmh SW -- 30.16 in1021.3 mb 0.00 in0.0 mm 0.00 in0.0 mm 0.00 in0.0 mm
08:52 AM 48.4°F9.1°C 40.4°F4.7°C 74% 6.0 mph SSW9.7 kmh SSW -- 30.16 in1021.3 mb 0.00 in0.0 mm 0.00 in0.0 mm 0.00 in0.0 mm
08:51 AM 48.4°F9.1°C 40.4°F4.7°C 74% 5.0 mph SW8.0 kmh SW -- 30.16 in1021.3 mb 0.00 in0.0 mm 0.00 in0.0 mm 0.00 in0.0 mm
08:50 AM 48.4°F9.1°C 40.4°F4.7°C 74% 8.0 mph SW12.9 kmh SW -- 30.16 in1021.3 mb 0.00 in0.0 mm 0.00 in0.0 mm 0.00 in0.0 mm
08:49 AM 48.4°F9.1°C 40.4°F4.7°C 74% 6.0 mph SSW9.7 kmh SSW -- 30.16 in1021.3 mb 0.00 in0.0 mm 0.00 in0.0 mm 0.00 in0.0 mm
08:48 AM 48.4°F9.1°C 40.4°F4.7°C 74% 8.0 mph S12.9 kmh S -- 30.16 in1021.3 mb 0.00 in0.0 mm 0.00 in0.0 mm 0.00 in0.0 mm
08:47 AM 48.2°F9.0°C 40.2°F4.6°C 74% 4.0 mph SSW6.4 kmh SSW -- 30.16 in1021.3 mb 0.00 in0.0 mm 0.00 in0.0 mm 0.00 in0.0 mm
08:46 AM 48.5°F9.2°C 40.6°F4.8°C 74% 6.0 mph SW9.7 kmh SW -- 30.16 in1021.3 mb 0.00 in0.0 mm 0.00 in0.0 mm 0.00 in0.0 mm
08:45 AM 48.4°F9.1°C 40.7°F4.8°C 75% 5.0 mph S8.0 kmh S -- 30.16 in1021.3 mb 0.00 in0.0 mm 0.00 in0.0 mm 0.00 in0.0 mm
08:44 AM 48.2°F9.0°C 40.6°F4.8°C 75% 5.0 mph S8.0 kmh S -- 30.16 in1021.3 mb 0.00 in0.0 mm 0.00 in0.0 mm 0.00 in0.0 mm
08:42 AM 48.0°F8.9°C 40.4°F4.7°C 75% 6.0 mph SSE9.7 kmh SSE -- 30.16 in1021.3 mb 0.00 in0.0 mm 0.00 in0.0 mm 0.00 in0.0 mm
08:41 AM 48.0°F8.9°C 40.4°F4.7°C 75% 6.0 mph S9.7 kmh S -- 30.16 in1021.3 mb 0.00 in0.0 mm 0.00 in0.0 mm 0.00 in0.0 mm
08:40 AM 47.7°F8.7°C 40.0°F4.4°C 75% 6.0 mph SSE9.7 kmh SSE -- 30.16 in1021.3 mb 0.00 in0.0 mm 0.00 in0.0 mm 0.00 in0.0 mm
08:39 AM 47.7°F8.7°C 40.0°F4.4°C 75% 8.0 mph S12.9 kmh S -- 30.16 in1021.3 mb 0.00 in0.0 mm 0.00 in0.0 mm 0.00 in0.0 mm
08:38 AM 47.6°F8.7°C 40.0°F4.4°C 75% 5.0 mph SSE8.0 kmh SSE -- 30.16 in1021.3 mb 0.00 in0.0 mm 0.00 in0.0 mm 0.00 in0.0 mm
08:37 AM 47.6°F8.7°C 40.0°F4.4°C 75% 9.0 mph SSE14.5 kmh SSE -- 30.16 in1021.3 mb 0.00 in0.0 mm 0.00 in0.0 mm 0.00 in0.0 mm
08:36 AM 47.7°F8.7°C 40.0°F4.4°C 75% 7.0 mph SE11.3 kmh SE -- 30.16 in1021.3 mb 0.00 in0.0 mm 0.00 in0.0 mm 0.00 in0.0 mm
08:35 AM 47.7°F8.7°C 40.4°F4.7°C 76% 6.0 mph SSE9.7 kmh SSE -- 30.16 in1021.3 mb 0.00 in0.0 mm 0.00 in0.0 mm 0.00 in0.0 mm
08:34 AM 47.6°F8.7°C 40.4°F4.7°C 76% 5.0 mph SSE8.0 kmh SSE -- 30.16 in1021.3 mb 0.00 in0.0 mm 0.00 in0.0 mm 0.00 in0.0 mm
08:33 AM 47.5°F8.6°C 40.2°F4.6°C 76% 3.0 mph SSE4.8 kmh SSE -- 30.16 in1021.3 mb 0.00 in0.0 mm 0.00 in0.0 mm 0.00 in0.0 mm
08:32 AM 47.3°F8.5°C 40.0°F4.4°C 76% 7.0 mph SSE11.3 kmh SSE -- 30.16 in1021.3 mb 0.00 in0.0 mm 0.00 in0.0 mm 0.00 in0.0 mm
08:31 AM 47.1°F8.4°C 39.9°F4.4°C 76% 4.0 mph S6.4 kmh S -- 30.16 in1021.3 mb 0.00 in0.0 mm 0.00 in0.0 mm 0.00 in0.0 mm
08:30 AM 47.3°F8.5°C 40.0°F4.4°C 76% 6.0 mph S9.7 kmh S -- 30.16 in1021.3 mb 0.00 in0.0 mm 0.00 in0.0 mm 0.00 in0.0 mm
08:29 AM 47.5°F8.6°C 40.2°F4.6°C 76% 4.0 mph SSE6.4 kmh SSE -- 30.16 in1021.3 mb 0.00 in0.0 mm 0.00 in0.0 mm 0.00 in0.0 mm
08:28 AM 47.3°F8.5°C 40.7°F4.8°C 78% 6.0 mph SSE9.7 kmh SSE -- 30.16 in1021.3 mb 0.00 in0.0 mm 0.00 in0.0 mm 0.00 in0.0 mm
08:27 AM 46.9°F8.3°C 40.7°F4.8°C 79% 4.0 mph SSE6.4 kmh SSE -- 30.16 in1021.3 mb 0.00 in0.0 mm 0.00 in0.0 mm 0.00 in0.0 mm
08:26 AM 46.9°F8.3°C 40.7°F4.8°C 79% 3.0 mph SSW4.8 kmh SSW -- 30.16 in1021.3 mb 0.00 in0.0 mm 0.00 in0.0 mm 0.00 in0.0 mm
08:25 AM 46.7°F8.2°C 40.5°F4.7°C 79% 3.0 mph S4.8 kmh S -- 30.16 in1021.3 mb 0.00 in0.0 mm 0.00 in0.0 mm 0.00 in0.0 mm
08:24 AM 46.9°F8.3°C 40.7°F4.8°C 79% 4.0 mph S6.4 kmh S -- 30.16 in1021.3 mb 0.00 in0.0 mm 0.00 in0.0 mm 0.00 in0.0 mm
08:23 AM 46.9°F8.3°C 40.7°F4.8°C 79% 5.0 mph SE8.0 kmh SE -- 30.16 in1021.3 mb 0.00 in0.0 mm 0.00 in0.0 mm 0.00 in0.0 mm
08:22 AM 46.7°F8.2°C 40.5°F4.7°C 79% 5.0 mph SSW8.0 kmh SSW -- 30.16 in1021.3 mb 0.00 in0.0 mm 0.00 in0.0 mm 0.00 in0.0 mm
08:21 AM 46.4°F8.0°C 40.5°F4.7°C 80% 4.0 mph S6.4 kmh S -- 30.16 in1021.3 mb 0.00 in0.0 mm 0.00 in0.0 mm 0.00 in0.0 mm
08:20 AM 46.1°F7.8°C 40.1°F4.5°C 80% 6.0 mph SW9.7 kmh SW -- 30.16 in1021.3 mb 0.00 in0.0 mm 0.00 in0.0 mm 0.00 in0.0 mm
08:19 AM 45.9°F7.7°C 40.0°F4.4°C 80% 6.0 mph S9.7 kmh S -- 30.16 in1021.3 mb 0.00 in0.0 mm 0.00 in0.0 mm 0.00 in0.0 mm
08:18 AM 45.9°F7.7°C 40.3°F4.6°C 81% 6.0 mph S9.7 kmh S -- 30.16 in1021.3 mb 0.00 in0.0 mm 0.00 in0.0 mm 0.00 in0.0 mm
08:17 AM 45.7°F7.6°C 40.1°F4.5°C 81% 5.0 mph WSW8.0 kmh WSW -- 30.16 in1021.3 mb 0.00 in0.0 mm 0.00 in0.0 mm 0.00 in0.0 mm
08:16 AM 45.2°F7.3°C 39.6°F4.2°C 81% 5.0 mph S8.0 kmh S -- 30.16 in1021.3 mb 0.00 in0.0 mm 0.00 in0.0 mm 0.00 in0.0 mm
08:15 AM 45.2°F7.3°C 39.6°F4.2°C 81% 6.0 mph SSE9.7 kmh SSE -- 30.16 in1021.3 mb 0.00 in0.0 mm 0.00 in0.0 mm 0.00 in0.0 mm
08:14 AM 45.0°F7.2°C 39.4°F4.1°C 81% 4.0 mph SW6.4 kmh SW -- 30.16 in1021.3 mb 0.00 in0.0 mm 0.00 in0.0 mm 0.00 in0.0 mm
08:13 AM 45.0°F7.2°C 39.4°F4.1°C 81% 8.0 mph S12.9 kmh S -- 30.15 in1021.0 mb 0.00 in0.0 mm 0.00 in0.0 mm 0.00 in0.0 mm
08:11 AM 45.0°F7.2°C 39.4°F4.1°C 81% 4.0 mph SSW6.4 kmh SSW -- 30.16 in1021.3 mb 0.00 in0.0 mm 0.00 in0.0 mm 0.00 in0.0 mm
08:10 AM 45.2°F7.3°C 39.6°F4.2°C 81% 4.0 mph S6.4 kmh S -- 30.16 in1021.3 mb 0.00 in0.0 mm 0.00 in0.0 mm 0.00 in0.0 mm
08:09 AM 45.0°F7.2°C 39.4°F4.1°C 81% 7.0 mph SSW11.3 kmh SSW -- 30.15 in1021.0 mb 0.00 in0.0 mm 0.00 in0.0 mm 0.00 in0.0 mm
08:08 AM 45.2°F7.3°C 39.6°F4.2°C 81% 7.0 mph SW11.3 kmh SW -- 30.15 in1021.0 mb 0.00 in0.0 mm 0.00 in0.0 mm 0.00 in0.0 mm
08:07 AM 45.0°F7.2°C 39.4°F4.1°C 81% 4.0 mph W6.4 kmh W -- 30.15 in1021.0 mb 0.00 in0.0 mm 0.00 in0.0 mm 0.00 in0.0 mm
08:06 AM 45.0°F7.2°C 39.4°F4.1°C 81% 3.0 mph SW4.8 kmh SW -- 30.16 in1021.3 mb 0.00 in0.0 mm 0.00 in0.0 mm 0.00 in0.0 mm
08:05 AM 44.8°F7.1°C 39.2°F4.0°C 81% 5.0 mph WSW8.0 kmh WSW -- 30.16 in1021.3 mb 0.00 in0.0 mm 0.00 in0.0 mm 0.00 in0.0 mm
08:04 AM 44.8°F7.1°C 39.2°F4.0°C 81% 3.0 mph SW4.8 kmh SW -- 30.16 in1021.3 mb 0.00 in0.0 mm 0.00 in0.0 mm 0.00 in0.0 mm
08:03 AM 45.0°F7.2°C 39.4°F4.1°C 81% 5.0 mph SW8.0 kmh SW -- 30.16 in1021.3 mb 0.00 in0.0 mm 0.00 in0.0 mm 0.00 in0.0 mm
08:02 AM 44.8°F7.1°C 39.2°F4.0°C 81% 5.0 mph SSW8.0 kmh SSW -- 30.16 in1021.3 mb 0.00 in0.0 mm 0.00 in0.0 mm 0.00 in0.0 mm
08:01 AM 44.8°F7.1°C 39.2°F4.0°C 81% 4.0 mph SSE6.4 kmh SSE -- 30.15 in1021.0 mb 0.00 in0.0 mm 0.00 in0.0 mm 0.00 in0.0 mm
08:00 AM 44.6°F7.0°C 39.1°F3.9°C 81% 5.0 mph SSW8.0 kmh SSW -- 30.16 in1021.3 mb 0.00 in0.0 mm 0.00 in0.0 mm 0.00 in0.0 mm
07:59 AM 44.6°F7.0°C 39.7°F4.3°C 83% 5.0 mph SSW8.0 kmh SSW -- 30.15 in1021.0 mb 0.00 in0.0 mm 0.00 in0.0 mm 0.00 in0.0 mm
07:58 AM 44.6°F7.0°C 39.7°F4.3°C 83% 3.0 mph S4.8 kmh S -- 30.16 in1021.3 mb 0.00 in0.0 mm 0.00 in0.0 mm 0.00 in0.0 mm
07:57 AM 44.2°F6.8°C 39.3°F4.1°C 83% 6.0 mph S9.7 kmh S -- 30.15 in1021.0 mb 0.00 in0.0 mm 0.00 in0.0 mm 0.00 in0.0 mm
07:56 AM 44.2°F6.8°C 39.3°F4.1°C 83% 4.0 mph SSW6.4 kmh SSW -- 30.15 in1021.0 mb 0.00 in0.0 mm 0.00 in0.0 mm 0.00 in0.0 mm
07:55 AM 44.2°F6.8°C 39.3°F4.1°C 83% 7.0 mph S11.3 kmh S -- 30.15 in1021.0 mb 0.00 in0.0 mm 0.00 in0.0 mm 0.00 in0.0 mm
07:54 AM 44.2°F6.8°C 39.3°F4.1°C 83% 5.0 mph S8.0 kmh S -- 30.16 in1021.3 mb 0.00 in0.0 mm 0.00 in0.0 mm 0.00 in0.0 mm
07:53 AM 44.0°F6.7°C 39.2°F4.0°C 83% 5.0 mph S8.0 kmh S -- 30.15 in1021.0 mb 0.00 in0.0 mm 0.00 in0.0 mm 0.00 in0.0 mm
07:52 AM 44.0°F6.7°C 39.2°F4.0°C 83% 6.0 mph SSW9.7 kmh SSW -- 30.16 in1021.3 mb 0.00 in0.0 mm 0.00 in0.0 mm 0.00 in0.0 mm
07:51 AM 44.0°F6.7°C 39.2°F4.0°C 83% 8.0 mph SSE12.9 kmh SSE -- 30.15 in1021.0 mb 0.00 in0.0 mm 0.00 in0.0 mm 0.00 in0.0 mm
07:50 AM 44.0°F6.7°C 39.2°F4.0°C 83% 6.0 mph SSW9.7 kmh SSW -- 30.15 in1021.0 mb 0.00 in0.0 mm 0.00 in0.0 mm 0.00 in0.0 mm
07:49 AM 44.0°F6.7°C 39.2°F4.0°C 83% 4.0 mph SSW6.4 kmh SSW -- 30.15 in1021.0 mb 0.00 in0.0 mm 0.00 in0.0 mm 0.00 in0.0 mm
07:48 AM 44.0°F6.7°C 39.2°F4.0°C 83% 3.0 mph S4.8 kmh S -- 30.15 in1021.0 mb 0.00 in0.0 mm 0.00 in0.0 mm 0.00 in0.0 mm
07:47 AM 44.0°F6.7°C 39.2°F4.0°C 83% 4.0 mph S6.4 kmh S -- 30.15 in1021.0 mb 0.00 in0.0 mm 0.00 in0.0 mm 0.00 in0.0 mm
07:46 AM 43.9°F6.6°C 39.0°F3.9°C 83% 4.0 mph SSW6.4 kmh SSW -- 30.16 in1021.3 mb 0.00 in0.0 mm 0.00 in0.0 mm 0.00 in0.0 mm
07:45 AM 43.6°F6.4°C 38.6°F3.7°C 83% 4.0 mph SSW6.4 kmh SSW -- 30.15 in1021.0 mb 0.00 in0.0 mm 0.00 in0.0 mm 0.00 in0.0 mm
07:44 AM 43.6°F6.4°C 38.6°F3.7°C 83% 3.0 mph SSW4.8 kmh SSW -- 30.16 in1021.3 mb 0.00 in0.0 mm 0.00 in0.0 mm 0.00 in0.0 mm
07:43 AM 43.6°F6.4°C 38.6°F3.7°C 83% 5.0 mph SSW8.0 kmh SSW -- 30.16 in1021.3 mb 0.00 in0.0 mm 0.00 in0.0 mm 0.00 in0.0 mm
07:42 AM 43.4°F6.3°C 38.5°F3.6°C 83% 5.0 mph S8.0 kmh S -- 30.16 in1021.3 mb 0.00 in0.0 mm 0.00 in0.0 mm 0.00 in0.0 mm
07:41 AM 43.4°F6.3°C 38.5°F3.6°C 83% 6.0 mph S9.7 kmh S -- 30.15 in1021.0 mb 0.00 in0.0 mm 0.00 in0.0 mm 0.00 in0.0 mm
07:40 AM 43.4°F6.3°C 39.1°F3.9°C 85% 3.0 mph SW4.8 kmh SW -- 30.15 in1021.0 mb 0.00 in0.0 mm 0.00 in0.0 mm 0.00 in0.0 mm
07:39 AM 43.2°F6.2°C 38.9°F3.8°C 85% 4.0 mph S6.4 kmh S -- 30.15 in1021.0 mb 0.00 in0.0 mm 0.00 in0.0 mm 0.00 in0.0 mm
07:38 AM 43.2°F6.2°C 38.9°F3.8°C 85% 6.0 mph S9.7 kmh S -- 30.16 in1021.3 mb 0.00 in0.0 mm 0.00 in0.0 mm 0.00 in0.0 mm
07:37 AM 43.2°F6.2°C 38.9°F3.8°C 85% 4.0 mph S6.4 kmh S -- 30.15 in1021.0 mb 0.00 in0.0 mm 0.00 in0.0 mm 0.00 in0.0 mm
07:36 AM 43.0°F6.1°C 38.7°F3.7°C 85% 5.0 mph SSW8.0 kmh SSW -- 30.16 in1021.3 mb 0.00 in0.0 mm 0.00 in0.0 mm 0.00 in0.0 mm
07:35 AM 43.0°F6.1°C 38.7°F3.7°C 85% 5.0 mph SSE8.0 kmh SSE -- 30.16 in1021.3 mb 0.00 in0.0 mm 0.00 in0.0 mm 0.00 in0.0 mm
07:33 AM 43.0°F6.1°C 38.7°F3.7°C 85% 4.0 mph S6.4 kmh S -- 30.15 in1021.0 mb 0.00 in0.0 mm 0.00 in0.0 mm 0.00 in0.0 mm
07:30 AM 42.7°F5.9°C 38.4°F3.6°C 85% 6.0 mph S9.7 kmh S -- 30.15 in1021.0 mb 0.00 in0.0 mm 0.00 in0.0 mm 0.00 in0.0 mm
07:29 AM 42.7°F5.9°C 38.4°F3.6°C 85% 4.0 mph S6.4 kmh S -- 30.15 in1021.0 mb 0.00 in0.0 mm 0.00 in0.0 mm 0.00 in0.0 mm
07:27 AM 42.7°F5.9°C 38.4°F3.6°C 85% 6.0 mph S9.7 kmh S -- 30.15 in1021.0 mb 0.00 in0.0 mm 0.00 in0.0 mm 0.00 in0.0 mm
07:26 AM 42.5°F5.8°C 38.5°F3.6°C 86% 4.0 mph S6.4 kmh S -- 30.15 in1021.0 mb 0.00 in0.0 mm 0.00 in0.0 mm 0.00 in0.0 mm
07:25 AM 42.5°F5.8°C 38.5°F3.6°C 86% 7.0 mph S11.3 kmh S -- 30.15 in1021.0 mb 0.00 in0.0 mm 0.00 in0.0 mm 0.00 in0.0 mm
07:24 AM 42.4°F5.8°C 38.5°F3.6°C 86% 5.0 mph SSW8.0 kmh SSW -- 30.15 in1021.0 mb 0.00 in0.0 mm 0.00 in0.0 mm 0.00 in0.0 mm
07:23 AM 42.4°F5.8°C 38.5°F3.6°C 86% 6.0 mph S9.7 kmh S -- 30.15 in1021.0 mb 0.00 in0.0 mm 0.00 in0.0 mm 0.00 in0.0 mm
07:22 AM 42.4°F5.8°C 38.5°F3.6°C 86% 6.0 mph SSW9.7 kmh SSW -- 30.15 in1021.0 mb 0.00 in0.0 mm 0.00 in0.0 mm 0.00 in0.0 mm
07:21 AM 42.4°F5.8°C 38.5°F3.6°C 86% 7.0 mph SSW11.3 kmh SSW -- 30.15 in1021.0 mb 0.00 in0.0 mm 0.00 in0.0 mm 0.00 in0.0 mm
07:20 AM 42.4°F5.8°C 38.5°F3.6°C 86% 6.0 mph SSW9.7 kmh SSW -- 30.15 in1021.0 mb 0.00 in0.0 mm 0.00 in0.0 mm 0.00 in0.0 mm
07:19 AM 42.3°F5.7°C 38.3°F3.5°C 86% 5.0 mph SSW8.0 kmh SSW -- 30.15 in1021.0 mb 0.00 in0.0 mm 0.00 in0.0 mm 0.00 in0.0 mm
07:18 AM 42.1°F5.6°C 38.7°F3.7°C 88% 6.0 mph S9.7 kmh S -- 30.15 in1021.0 mb 0.00 in0.0 mm 0.00 in0.0 mm 0.00 in0.0 mm
07:17 AM 42.1°F5.6°C 38.7°F3.7°C 88% 4.0 mph S6.4 kmh S -- 30.15 in1021.0 mb 0.00 in0.0 mm 0.00 in0.0 mm 0.00 in0.0 mm
07:16 AM 41.9°F5.5°C 38.6°F3.7°C 88% 3.0 mph S4.8 kmh S -- 30.16 in1021.3 mb 0.00 in0.0 mm 0.00 in0.0 mm 0.00 in0.0 mm
07:15 AM 41.9°F5.5°C 38.6°F3.7°C 88% 6.0 mph SW9.7 kmh SW -- 30.16 in1021.3 mb 0.00 in0.0 mm 0.00 in0.0 mm 0.00 in0.0 mm
07:14 AM 41.9°F5.5°C 38.6°F3.7°C 88% 3.0 mph SSW4.8 kmh SSW -- 30.15 in1021.0 mb 0.00 in0.0 mm 0.00 in0.0 mm 0.00 in0.0 mm
07:13 AM 41.7°F5.4°C 38.4°F3.6°C 88% 3.0 mph SSW4.8 kmh SSW -- 30.15 in1021.0 mb 0.00 in0.0 mm 0.00 in0.0 mm 0.00 in0.0 mm
07:12 AM 41.7°F5.4°C 38.4°F3.6°C 88% 3.0 mph S4.8 kmh S -- 30.15 in1021.0 mb 0.00 in0.0 mm 0.00 in0.0 mm 0.00 in0.0 mm
07:11 AM 41.5°F5.3°C 38.2°F3.4°C 88% 3.0 mph W4.8 kmh W -- 30.15 in1021.0 mb 0.00 in0.0 mm 0.00 in0.0 mm 0.00 in0.0 mm
07:10 AM 41.4°F5.2°C 38.0°F3.3°C 88% 3.0 mph SSW4.8 kmh SSW -- 30.15 in1021.0 mb 0.00 in0.0 mm 0.00 in0.0 mm 0.00 in0.0 mm
07:09 AM 41.4°F5.2°C 38.0°F3.3°C 88% 4.0 mph S6.4 kmh S -- 30.15 in1021.0 mb 0.00 in0.0 mm 0.00 in0.0 mm 0.00 in0.0 mm
07:08 AM 41.4°F5.2°C 38.0°F3.3°C 88% 4.0 mph SW6.4 kmh SW -- 30.16 in1021.3 mb 0.00 in0.0 mm 0.00 in0.0 mm 0.00 in0.0 mm
07:07 AM 41.4°F5.2°C 38.0°F3.3°C 88% 2.0 mph SW3.2 kmh SW -- 30.16 in1021.3 mb 0.00 in0.0 mm 0.00 in0.0 mm 0.00 in0.0 mm
07:06 AM 41.4°F5.2°C 38.6°F3.7°C 90% 5.0 mph SW8.0 kmh SW -- 30.15 in1021.0 mb 0.00 in0.0 mm 0.00 in0.0 mm 0.00 in0.0 mm
07:05 AM 41.1°F5.1°C 38.4°F3.6°C 90% 4.0 mph S6.4 kmh S -- 30.15 in1021.0 mb 0.00 in0.0 mm 0.00 in0.0 mm 0.00 in0.0 mm
07:04 AM 41.1°F5.1°C 38.4°F3.6°C 90% 2.0 mph SSW3.2 kmh SSW -- 30.16 in1021.3 mb 0.00 in0.0 mm 0.00 in0.0 mm 0.00 in0.0 mm
07:03 AM 40.9°F4.9°C 38.1°F3.4°C 90% 3.0 mph S4.8 kmh S -- 30.16 in1021.3 mb 0.00 in0.0 mm 0.00 in0.0 mm 0.00 in0.0 mm
07:02 AM 40.7°F4.8°C 38.2°F3.4°C 91% 5.0 mph S8.0 kmh S -- 30.15 in1021.0 mb 0.00 in0.0 mm 0.00 in0.0 mm 0.00 in0.0 mm
07:01 AM 40.5°F4.7°C 38.0°F3.3°C 91% 2.0 mph SSE3.2 kmh SSE -- 30.16 in1021.3 mb 0.00 in0.0 mm 0.00 in0.0 mm 0.00 in0.0 mm
07:00 AM 40.5°F4.7°C 38.0°F3.3°C 91% 3.0 mph S4.8 kmh S -- 30.15 in1021.0 mb 0.00 in0.0 mm 0.00 in0.0 mm 0.00 in0.0 mm
06:59 AM 40.0°F4.4°C 38.0°F3.3°C 93% 5.0 mph S8.0 kmh S -- 30.15 in1021.0 mb 0.00 in0.0 mm 0.00 in0.0 mm 0.00 in0.0 mm
06:58 AM 39.7°F4.3°C 37.9°F3.3°C 93% 3.0 mph SSW4.8 kmh SSW -- 30.15 in1021.0 mb 0.00 in0.0 mm 0.00 in0.0 mm 0.00 in0.0 mm
06:57 AM 39.4°F4.1°C 38.0°F3.3°C 95% 2.0 mph SSE3.2 kmh SSE -- 30.15 in1021.0 mb 0.00 in0.0 mm 0.00 in0.0 mm 0.00 in0.0 mm
06:56 AM 39.2°F4.0°C 37.9°F3.3°C 95% 2.0 mph S3.2 kmh S -- 30.15 in1021.0 mb 0.00 in0.0 mm 0.00 in0.0 mm 0.00 in0.0 mm
06:55 AM 39.0°F3.9°C 38.0°F3.3°C 96% 4.0 mph SSW6.4 kmh SSW -- 30.16 in1021.3 mb 0.00 in0.0 mm 0.00 in0.0 mm 0.00 in0.0 mm
06:54 AM 38.7°F3.7°C 37.6°F3.1°C 96% 3.0 mph W4.8 kmh W -- 30.15 in1021.0 mb 0.00 in0.0 mm 0.00 in0.0 mm 0.00 in0.0 mm
06:53 AM 38.2°F3.4°C 37.1°F2.8°C 96% 2.0 mph SSW3.2 kmh SSW -- 30.15 in1021.0 mb 0.00 in0.0 mm 0.00 in0.0 mm 0.00 in0.0 mm
06:52 AM 38.0°F3.3°C 37.4°F3.0°C 98% 2.0 mph SSW3.2 kmh SSW -- 30.15 in1021.0 mb 0.00 in0.0 mm 0.00 in0.0 mm 0.00 in0.0 mm
06:51 AM 37.7°F3.2°C 37.2°F2.9°C 98% 4.0 mph SW6.4 kmh SW -- 30.16 in1021.3 mb 0.00 in0.0 mm 0.00 in0.0 mm 0.00 in0.0 mm
06:50 AM 37.5°F3.1°C 37.1°F2.8°C 98% 2.0 mph WSW3.2 kmh WSW -- 30.15 in1021.0 mb 0.00 in0.0 mm 0.00 in0.0 mm 0.00 in0.0 mm
06:49 AM 37.4°F3.0°C 36.9°F2.7°C 98% 2.0 mph S3.2 kmh S -- 30.16 in1021.3 mb 0.00 in0.0 mm 0.00 in0.0 mm 0.00 in0.0 mm
06:48 AM 37.0°F2.8°C 36.5°F2.5°C 98% 2.0 mph S3.2 kmh S -- 30.16 in1021.3 mb 0.00 in0.0 mm 0.00 in0.0 mm 0.00 in0.0 mm
06:47 AM 36.7°F2.6°C 36.2°F2.3°C 98% Calm Calm -- 30.16 in1021.3 mb 0.00 in0.0 mm 0.00 in0.0 mm 0.00 in0.0 mm
06:46 AM 36.5°F2.5°C 36.0°F2.2°C 98% 1.0 mph W1.6 kmh W -- 30.16 in1021.3 mb 0.00 in0.0 mm 0.00 in0.0 mm 0.00 in0.0 mm
06:44 AM 36.5°F2.5°C 36.0°F2.2°C 98% 2.0 mph WSW3.2 kmh WSW -- 30.16 in1021.3 mb 0.00 in0.0 mm 0.00 in0.0 mm 0.00 in0.0 mm
06:43 AM 36.5°F2.5°C 35.5°F1.9°C 96% 2.0 mph WSW3.2 kmh WSW -- 30.16 in1021.3 mb 0.00 in0.0 mm 0.00 in0.0 mm 0.00 in0.0 mm
06:42 AM 36.5°F2.5°C 35.5°F1.9°C 96% 1.0 mph WSW1.6 kmh WSW -- 30.16 in1021.3 mb 0.00 in0.0 mm 0.00 in0.0 mm 0.00 in0.0 mm
06:41 AM 36.5°F2.5°C 35.5°F1.9°C 96% 1.0 mph W1.6 kmh W -- 30.15 in1021.0 mb 0.00 in0.0 mm 0.00 in0.0 mm 0.00 in0.0 mm
06:40 AM 36.2°F2.3°C 35.1°F1.7°C 96% Calm Calm -- 30.16 in1021.3 mb 0.00 in0.0 mm 0.00 in0.0 mm 0.00 in0.0 mm
06:36 AM 36.2°F2.3°C 35.1°F1.7°C 96% Calm Calm -- 30.16 in1021.3 mb 0.00 in0.0 mm 0.00 in0.0 mm 0.00 in0.0 mm
06:35 AM 36.5°F2.5°C 35.5°F1.9°C 96% Calm Calm -- 30.16 in1021.3 mb 0.00 in0.0 mm 0.00 in0.0 mm 0.00 in0.0 mm
06:34 AM 36.7°F2.6°C 35.6°F2.0°C 96% Calm Calm -- 30.16 in1021.3 mb 0.00 in0.0 mm 0.00 in0.0 mm 0.00 in0.0 mm
06:33 AM 36.9°F2.7°C 35.8°F2.1°C 96% Calm Calm -- 30.16 in1021.3 mb 0.00 in0.0 mm 0.00 in0.0 mm 0.00 in0.0 mm
06:32 AM 37.0°F2.8°C 36.0°F2.2°C 96% Calm Calm -- 30.15 in1021.0 mb 0.00 in0.0 mm 0.00 in0.0 mm 0.00 in0.0 mm
06:31 AM 37.0°F2.8°C 36.0°F2.2°C 96% Calm Calm -- 30.15 in1021.0 mb 0.00 in0.0 mm 0.00 in0.0 mm 0.00 in0.0 mm
06:30 AM 37.2°F2.9°C 36.2°F2.3°C 96% Calm Calm -- 30.15 in1021.0 mb 0.00 in0.0 mm 0.00 in0.0 mm 0.00 in0.0 mm
06:29 AM 37.4°F3.0°C 36.3°F2.4°C 96% Calm Calm -- 30.15 in1021.0 mb 0.00 in0.0 mm 0.00 in0.0 mm 0.00 in0.0 mm
06:28 AM 37.5°F3.1°C 36.5°F2.5°C 96% Calm Calm -- 30.15 in1021.0 mb 0.00 in0.0 mm 0.00 in0.0 mm 0.00 in0.0 mm
06:27 AM 37.5°F3.1°C 36.5°F2.5°C 96% Calm Calm -- 30.15 in1021.0 mb 0.00 in0.0 mm 0.00 in0.0 mm 0.00 in0.0 mm
06:26 AM 37.5°F3.1°C 36.5°F2.5°C 96% Calm Calm -- 30.15 in1021.0 mb 0.00 in0.0 mm 0.00 in0.0 mm 0.00 in0.0 mm
06:24 AM 37.7°F3.2°C 36.7°F2.6°C 96% Calm Calm -- 30.15 in1021.0 mb 0.00 in0.0 mm 0.00 in0.0 mm 0.00 in0.0 mm
06:22 AM 37.8°F3.2°C 36.7°F2.6°C 96% Calm Calm -- 30.15 in1021.0 mb 0.00 in0.0 mm 0.00 in0.0 mm 0.00 in0.0 mm
06:21 AM 38.0°F3.3°C 36.9°F2.7°C 96% Calm Calm -- 30.15 in1021.0 mb 0.00 in0.0 mm 0.00 in0.0 mm 0.00 in0.0 mm
06:20 AM 38.0°F3.3°C 36.6°F2.6°C 95% Calm Calm -- 30.15 in1021.0 mb 0.00 in0.0 mm 0.00 in0.0 mm 0.00 in0.0 mm
06:18 AM 38.2°F3.4°C 36.8°F2.7°C 95% Calm Calm -- 30.15 in1021.0 mb 0.00 in0.0 mm 0.00 in0.0 mm 0.00 in0.0 mm
06:17 AM 38.4°F3.6°C 37.2°F2.9°C 95% Calm Calm -- 30.15 in1021.0 mb 0.00 in0.0 mm 0.00 in0.0 mm 0.00 in0.0 mm
06:16 AM 38.7°F3.7°C 37.3°F2.9°C 95% Calm Calm -- 30.15 in1021.0 mb 0.00 in0.0 mm 0.00 in0.0 mm 0.00 in0.0 mm
06:15 AM 39.0°F3.9°C 37.7°F3.2°C 95% 2.0 mph WNW3.2 kmh WNW -- 30.15 in1021.0 mb 0.00 in0.0 mm 0.00 in0.0 mm 0.00 in0.0 mm
06:14 AM 39.2°F4.0°C 37.9°F3.3°C 95% Calm Calm -- 30.15 in1021.0 mb 0.00 in0.0 mm 0.00 in0.0 mm 0.00 in0.0 mm
06:13 AM 39.2°F4.0°C 37.9°F3.3°C 95% 2.0 mph WSW3.2 kmh WSW -- 30.15 in1021.0 mb 0.00 in0.0 mm 0.00 in0.0 mm 0.00 in0.0 mm
06:12 AM 39.2°F4.0°C 37.9°F3.3°C 95% 2.0 mph S3.2 kmh S -- 30.15 in1021.0 mb 0.00 in0.0 mm 0.00 in0.0 mm 0.00 in0.0 mm
06:11 AM 39.2°F4.0°C 37.9°F3.3°C 95% 1.0 mph SSW1.6 kmh SSW -- 30.15 in1021.0 mb 0.00 in0.0 mm 0.00 in0.0 mm 0.00 in0.0 mm
06:10 AM 39.2°F4.0°C 37.9°F3.3°C 95% Calm Calm -- 30.14 in1020.7 mb 0.00 in0.0 mm 0.00 in0.0 mm 0.00 in0.0 mm
06:09 AM 39.2°F4.0°C 37.9°F3.3°C 95% 1.0 mph S1.6 kmh S -- 30.14 in1020.7 mb 0.00 in0.0 mm 0.00 in0.0 mm 0.00 in0.0 mm
06:08 AM 39.0°F3.9°C 37.7°F3.2°C 95% 2.0 mph S3.2 kmh S -- 30.14 in1020.7 mb 0.00 in0.0 mm 0.00 in0.0 mm 0.00 in0.0 mm
06:07 AM 38.7°F3.7°C 37.3°F2.9°C 95% 3.0 mph WSW4.8 kmh WSW -- 30.14 in1020.7 mb 0.00 in0.0 mm 0.00 in0.0 mm 0.00 in0.0 mm
06:06 AM 38.7°F3.7°C 37.6°F3.1°C 96% 1.0 mph SW1.6 kmh SW -- 30.15 in1021.0 mb 0.00 in0.0 mm 0.00 in0.0 mm 0.00 in0.0 mm
06:05 AM 38.7°F3.7°C 37.6°F3.1°C 96% 3.0 mph S4.8 kmh S -- 30.15 in1021.0 mb 0.00 in0.0 mm 0.00 in0.0 mm 0.00 in0.0 mm
06:04 AM 38.4°F3.6°C 37.4°F3.0°C 96% 2.0 mph SSW3.2 kmh SSW -- 30.15 in1021.0 mb 0.00 in0.0 mm 0.00 in0.0 mm 0.00 in0.0 mm
06:03 AM 38.2°F3.4°C 37.1°F2.8°C 96% 2.0 mph SW3.2 kmh SW -- 30.15 in1021.0 mb 0.00 in0.0 mm 0.00 in0.0 mm 0.00 in0.0 mm
06:02 AM 37.8°F3.2°C 36.7°F2.6°C 96% 2.0 mph W3.2 kmh W -- 30.14 in1020.7 mb 0.00 in0.0 mm 0.00 in0.0 mm 0.00 in0.0 mm
06:01 AM 37.7°F3.2°C 36.7°F2.6°C 96% Calm Calm -- 30.15 in1021.0 mb 0.00 in0.0 mm 0.00 in0.0 mm 0.00 in0.0 mm
06:00 AM 37.4°F3.0°C 36.3°F2.4°C 96% Calm Calm -- 30.15 in1021.0 mb 0.00 in0.0 mm 0.00 in0.0 mm 0.00 in0.0 mm
05:59 AM 37.4°F3.0°C 36.3°F2.4°C 96% Calm Calm -- 30.15 in1021.0 mb 0.00 in0.0 mm 0.00 in0.0 mm 0.00 in0.0 mm
05:58 AM 37.4°F3.0°C 36.3°F2.4°C 96% Calm Calm -- 30.15 in1021.0 mb 0.00 in0.0 mm 0.00 in0.0 mm 0.00 in0.0 mm
05:57 AM 37.4°F3.0°C 36.3°F2.4°C 96% 1.0 mph SW1.6 kmh SW -- 30.15 in1021.0 mb 0.00 in0.0 mm 0.00 in0.0 mm 0.00 in0.0 mm
05:56 AM 37.4°F3.0°C 36.3°F2.4°C 96% Calm Calm -- 30.15 in1021.0 mb 0.00 in0.0 mm 0.00 in0.0 mm 0.00 in0.0 mm
05:55 AM 37.4°F3.0°C 36.3°F2.4°C 96% 1.0 mph S1.6 kmh S -- 30.15 in1021.0 mb 0.00 in0.0 mm 0.00 in0.0 mm 0.00 in0.0 mm
05:54 AM 37.2°F2.9°C 36.2°F2.3°C 96% 1.0 mph W1.6 kmh W -- 30.14 in1020.7 mb 0.00 in0.0 mm 0.00 in0.0 mm 0.00 in0.0 mm
05:53 AM 37.0°F2.8°C 36.0°F2.2°C 96% 1.0 mph W1.6 kmh W -- 30.14 in1020.7 mb 0.00 in0.0 mm 0.00 in0.0 mm 0.00 in0.0 mm
05:51 AM 36.9°F2.7°C 35.8°F2.1°C 96% Calm Calm -- 30.15 in1021.0 mb 0.00 in0.0 mm 0.00 in0.0 mm 0.00 in0.0 mm
05:50 AM 36.9°F2.7°C 35.8°F2.1°C 96% 1.0 mph W1.6 kmh W -- 30.15 in1021.0 mb 0.00 in0.0 mm 0.00 in0.0 mm 0.00 in0.0 mm
05:49 AM 36.9°F2.7°C 35.8°F2.1°C 96% 2.0 mph W3.2 kmh W -- 30.15 in1021.0 mb 0.00 in0.0 mm 0.00 in0.0 mm 0.00 in0.0 mm
05:48 AM 36.9°F2.7°C 35.5°F1.9°C 95% 3.0 mph W4.8 kmh W -- 30.15 in1021.0 mb 0.00 in0.0 mm 0.00 in0.0 mm 0.00 in0.0 mm
05:47 AM 36.9°F2.7°C 35.5°F1.9°C 95% 2.0 mph SW3.2 kmh SW -- 30.15 in1021.0 mb 0.00 in0.0 mm 0.00 in0.0 mm 0.00 in0.0 mm
05:46 AM 36.9°F2.7°C 35.5°F1.9°C 95% 2.0 mph WSW3.2 kmh WSW -- 30.15 in1021.0 mb 0.00 in0.0 mm 0.00 in0.0 mm 0.00 in0.0 mm
05:45 AM 36.9°F2.7°C 35.0°F1.7°C 93% 2.0 mph WNW3.2 kmh WNW -- 30.15 in1021.0 mb 0.00 in0.0 mm 0.00 in0.0 mm 0.00 in0.0 mm
05:43 AM 37.0°F2.8°C 35.2°F1.8°C 93% 2.0 mph 3.2 kmh -- 30.15 in1021.0 mb 0.00 in0.0 mm 0.00 in0.0 mm 0.00 in0.0 mm
05:42 AM 37.0°F2.8°C 35.2°F1.8°C 93% 1.0 mph 1.6 kmh -- 30.15 in1021.0 mb 0.00 in0.0 mm 0.00 in0.0 mm 0.00 in0.0 mm
05:41 AM 37.0°F2.8°C 35.2°F1.8°C 93% Calm Calm -- 30.15 in1021.0 mb 0.00 in0.0 mm 0.00 in0.0 mm 0.00 in0.0 mm
05:40 AM 37.0°F2.8°C 35.2°F1.8°C 93% 2.0 mph W3.2 kmh W -- 30.15 in1021.0 mb 0.00 in0.0 mm 0.00 in0.0 mm 0.00 in0.0 mm
05:39 AM 37.0°F2.8°C 35.2°F1.8°C 93% 2.0 mph WSW3.2 kmh WSW -- 30.15 in1021.0 mb 0.00 in0.0 mm 0.00 in0.0 mm 0.00 in0.0 mm
05:38 AM 37.4°F3.0°C 35.5°F1.9°C 93% 2.0 mph WNW3.2 kmh WNW -- 30.15 in1021.0 mb 0.00 in0.0 mm 0.00 in0.0 mm 0.00 in0.0 mm
05:37 AM 37.4°F3.0°C 35.5°F1.9°C 93% 2.0 mph 3.2 kmh -- 30.15 in1021.0 mb 0.00 in0.0 mm 0.00 in0.0 mm 0.00 in0.0 mm
05:36 AM 37.4°F3.0°C 35.5°F1.9°C 93% 3.0 mph NNE4.8 kmh NNE -- 30.15 in1021.0 mb 0.00 in0.0 mm 0.00 in0.0 mm 0.00 in0.0 mm
05:35 AM 37.5°F3.1°C 35.7°F2.1°C 93% Calm Calm -- 30.15 in1021.0 mb 0.00 in0.0 mm 0.00 in0.0 mm 0.00 in0.0 mm
05:34 AM 37.7°F3.2°C 35.9°F2.2°C 93% Calm Calm -- 30.15 in1021.0 mb 0.00 in0.0 mm 0.00 in0.0 mm 0.00 in0.0 mm
05:33 AM 37.7°F3.2°C 35.9°F2.2°C 93% Calm Calm -- 30.15 in1021.0 mb 0.00 in0.0 mm 0.00 in0.0 mm 0.00 in0.0 mm
05:32 AM 37.8°F3.2°C 35.9°F2.2°C 93% Calm Calm -- 30.14 in1020.7 mb 0.00 in0.0 mm 0.00 in0.0 mm 0.00 in0.0 mm
05:31 AM 37.8°F3.2°C 35.9°F2.2°C 93% Calm Calm -- 30.15 in1021.0 mb 0.00 in0.0 mm 0.00 in0.0 mm 0.00 in0.0 mm
05:30 AM 37.8°F3.2°C 35.9°F2.2°C 93% Calm Calm -- 30.14 in1020.7 mb 0.00 in0.0 mm 0.00 in0.0 mm 0.00 in0.0 mm
05:29 AM 38.0°F3.3°C 36.1°F2.3°C 93% Calm Calm -- 30.14 in1020.7 mb 0.00 in0.0 mm 0.00 in0.0 mm 0.00 in0.0 mm
05:28 AM 38.0°F3.3°C 36.1°F2.3°C 93% Calm Calm -- 30.14 in1020.7 mb 0.00 in0.0 mm 0.00 in0.0 mm 0.00 in0.0 mm
05:27 AM 38.0°F3.3°C 36.1°F2.3°C 93% Calm Calm -- 30.14 in1020.7 mb 0.00 in0.0 mm 0.00 in0.0 mm 0.00 in0.0 mm
05:25 AM 38.2°F3.4°C 36.2°F2.3°C 93% Calm Calm -- 30.14 in1020.7 mb 0.00 in0.0 mm 0.00 in0.0 mm 0.00 in0.0 mm
05:24 AM 38.2°F3.4°C 36.2°F2.3°C 93% 2.0 mph W3.2 kmh W -- 30.14 in1020.7 mb 0.00 in0.0 mm 0.00 in0.0 mm 0.00 in0.0 mm
05:23 AM 38.2°F3.4°C 36.2°F2.3°C 93% Calm Calm -- 30.14 in1020.7 mb 0.00 in0.0 mm 0.00 in0.0 mm 0.00 in0.0 mm
05:21 AM 38.2°F3.4°C 36.2°F2.3°C 93% Calm Calm -- 30.14 in1020.7 mb 0.00 in0.0 mm 0.00 in0.0 mm 0.00 in0.0 mm
05:19 AM 38.4°F3.6°C 36.6°F2.6°C 93% Calm Calm -- 30.14 in1020.7 mb 0.00 in0.0 mm 0.00 in0.0 mm 0.00 in0.0 mm
05:18 AM 38.4°F3.6°C 36.6°F2.6°C 93% Calm Calm -- 30.14 in1020.7 mb 0.00 in0.0 mm 0.00 in0.0 mm 0.00 in0.0 mm
05:17 AM 38.4°F3.6°C 36.6°F2.6°C 93% 1.0 mph WSW1.6 kmh WSW -- 30.14 in1020.7 mb 0.00 in0.0 mm 0.00 in0.0 mm 0.00 in0.0 mm
05:15 AM 38.4°F3.6°C 36.6°F2.6°C 93% 1.0 mph W1.6 kmh W -- 30.14 in1020.7 mb 0.00 in0.0 mm 0.00 in0.0 mm 0.00 in0.0 mm
05:13 AM 38.4°F3.6°C 36.6°F2.6°C 93% 1.0 mph W1.6 kmh W -- 30.13 in1020.3 mb 0.00 in0.0 mm 0.00 in0.0 mm 0.00 in0.0 mm
05:12 AM 38.4°F3.6°C 36.6°F2.6°C 93% 2.0 mph W3.2 kmh W -- 30.14 in1020.7 mb 0.00 in0.0 mm 0.00 in0.0 mm 0.00 in0.0 mm
05:11 AM 38.4°F3.6°C 36.6°F2.6°C 93% 3.0 mph W4.8 kmh W -- 30.14 in1020.7 mb 0.00 in0.0 mm 0.00 in0.0 mm 0.00 in0.0 mm
05:09 AM 38.4°F3.6°C 36.6°F2.6°C 93% 2.0 mph W3.2 kmh W -- 30.14 in1020.7 mb 0.00 in0.0 mm 0.00 in0.0 mm 0.00 in0.0 mm
05:08 AM 38.4°F3.6°C 36.6°F2.6°C 93% 2.0 mph W3.2 kmh W -- 30.13 in1020.3 mb 0.00 in0.0 mm 0.00 in0.0 mm 0.00 in0.0 mm
05:05 AM 38.4°F3.6°C 36.6°F2.6°C 93% 2.0 mph WNW3.2 kmh WNW -- 30.13 in1020.3 mb 0.00 in0.0 mm 0.00 in0.0 mm 0.00 in0.0 mm
05:04 AM 38.4°F3.6°C 36.6°F2.6°C 93% 1.0 mph WNW1.6 kmh WNW -- 30.13 in1020.3 mb 0.00 in0.0 mm 0.00 in0.0 mm 0.00 in0.0 mm
05:03 AM 38.4°F3.6°C 36.6°F2.6°C 93% 2.0 mph WNW3.2 kmh WNW -- 30.13 in1020.3 mb 0.00 in0.0 mm 0.00 in0.0 mm 0.00 in0.0 mm
05:02 AM 38.4°F3.6°C 36.6°F2.6°C 93% 1.0 mph W1.6 kmh W -- 30.13 in1020.3 mb 0.00 in0.0 mm 0.00 in0.0 mm 0.00 in0.0 mm
05:01 AM 38.4°F3.6°C 36.6°F2.6°C 93% 2.0 mph WNW3.2 kmh WNW -- 30.13 in1020.3 mb 0.00 in0.0 mm 0.00 in0.0 mm 0.00 in0.0 mm
04:58 AM 38.4°F3.6°C 36.6°F2.6°C 93% 3.0 mph W4.8 kmh W -- 30.13 in1020.3 mb 0.00 in0.0 mm 0.00 in0.0 mm 0.00 in0.0 mm
04:57 AM 38.4°F3.6°C 36.6°F2.6°C 93% 2.0 mph W3.2 kmh W -- 30.13 in1020.3 mb 0.00 in0.0 mm 0.00 in0.0 mm 0.00 in0.0 mm
04:55 AM 38.4°F3.6°C 36.6°F2.6°C 93% 3.0 mph WNW4.8 kmh WNW -- 30.13 in1020.3 mb 0.00 in0.0 mm 0.00 in0.0 mm 0.00 in0.0 mm
04:54 AM 38.4°F3.6°C 36.6°F2.6°C 93% 3.0 mph NW4.8 kmh NW -- 30.13 in1020.3 mb 0.00 in0.0 mm 0.00 in0.0 mm 0.00 in0.0 mm
04:53 AM 38.4°F3.6°C 36.6°F2.6°C 93% 2.0 mph WNW3.2 kmh WNW -- 30.13 in1020.3 mb 0.00 in0.0 mm 0.00 in0.0 mm 0.00 in0.0 mm
04:51 AM 38.4°F3.6°C 36.6°F2.6°C 93% 2.0 mph W3.2 kmh W -- 30.13 in1020.3 mb 0.00 in0.0 mm 0.00 in0.0 mm 0.00 in0.0 mm
04:48 AM 38.4°F3.6°C 36.6°F2.6°C 93% 3.0 mph W4.8 kmh W -- 30.13 in1020.3 mb 0.00 in0.0 mm 0.00 in0.0 mm 0.00 in0.0 mm
04:47 AM 38.4°F3.6°C 36.6°F2.6°C 93% 2.0 mph W3.2 kmh W -- 30.13 in1020.3 mb 0.00 in0.0 mm 0.00 in0.0 mm 0.00 in0.0 mm
04:45 AM 38.4°F3.6°C 36.6°F2.6°C 93% 2.0 mph WNW3.2 kmh WNW -- 30.13 in1020.3 mb 0.00 in0.0 mm 0.00 in0.0 mm 0.00 in0.0 mm
04:44 AM 38.4°F3.6°C 36.6°F2.6°C 93% 3.0 mph WNW4.8 kmh WNW -- 30.13 in1020.3 mb 0.00 in0.0 mm 0.00 in0.0 mm 0.00 in0.0 mm
04:43 AM 38.4°F3.6°C 36.6°F2.6°C 93% 3.0 mph W4.8 kmh W -- 30.13 in1020.3 mb 0.00 in0.0 mm 0.00 in0.0 mm 0.00 in0.0 mm
04:42 AM 38.4°F3.6°C 36.0°F2.2°C 91% 2.0 mph WNW3.2 kmh WNW -- 30.13 in1020.3 mb 0.00 in0.0 mm 0.00 in0.0 mm 0.00 in0.0 mm
04:40 AM 38.7°F3.7°C 36.2°F2.3°C 91% 2.0 mph WNW3.2 kmh WNW -- 30.13 in1020.3 mb 0.00 in0.0 mm 0.00 in0.0 mm 0.00 in0.0 mm
04:39 AM 38.7°F3.7°C 36.2°F2.3°C 91% 2.0 mph NW3.2 kmh NW -- 30.13 in1020.3 mb 0.00 in0.0 mm 0.00 in0.0 mm 0.00 in0.0 mm
04:38 AM 38.7°F3.7°C 36.2°F2.3°C 91% 2.0 mph W3.2 kmh W -- 30.13 in1020.3 mb 0.00 in0.0 mm 0.00 in0.0 mm 0.00 in0.0 mm
04:36 AM 38.7°F3.7°C 36.2°F2.3°C 91% 3.0 mph WNW4.8 kmh WNW -- 30.13 in1020.3 mb 0.00 in0.0 mm 0.00 in0.0 mm 0.00 in0.0 mm
04:35 AM 38.7°F3.7°C 36.2°F2.3°C 91% 3.0 mph W4.8 kmh W -- 30.13 in1020.3 mb 0.00 in0.0 mm 0.00 in0.0 mm 0.00 in0.0 mm
04:34 AM 39.0°F3.9°C 36.6°F2.6°C 91% 3.0 mph W4.8 kmh W -- 30.13 in1020.3 mb 0.00 in0.0 mm 0.00 in0.0 mm 0.00 in0.0 mm
04:33 AM 39.0°F3.9°C 36.6°F2.6°C 91% 2.0 mph WNW3.2 kmh WNW -- 30.13 in1020.3 mb 0.00 in0.0 mm 0.00 in0.0 mm 0.00 in0.0 mm
04:32 AM 39.2°F4.0°C 36.8°F2.7°C 91% 3.0 mph W4.8 kmh W -- 30.13 in1020.3 mb 0.00 in0.0 mm 0.00 in0.0 mm 0.00 in0.0 mm
04:31 AM 39.2°F4.0°C 36.8°F2.7°C 91% 2.0 mph WNW3.2 kmh WNW -- 30.13 in1020.3 mb 0.00 in0.0 mm 0.00 in0.0 mm 0.00 in0.0 mm
04:30 AM 39.2°F4.0°C 36.8°F2.7°C 91% 3.0 mph WNW4.8 kmh WNW -- 30.13 in1020.3 mb 0.00 in0.0 mm 0.00 in0.0 mm 0.00 in0.0 mm
04:29 AM 39.2°F4.0°C 36.8°F2.7°C 91% 4.0 mph W6.4 kmh W -- 30.13 in1020.3 mb 0.00 in0.0 mm 0.00 in0.0 mm 0.00 in0.0 mm
04:27 AM 39.4°F4.1°C 36.9°F2.7°C 91% 3.0 mph NW4.8 kmh NW -- 30.13 in1020.3 mb 0.00 in0.0 mm 0.00 in0.0 mm 0.00 in0.0 mm
04:26 AM 39.5°F4.2°C 37.1°F2.8°C 91% 4.0 mph NW6.4 kmh NW -- 30.13 in1020.3 mb 0.00 in0.0 mm 0.00 in0.0 mm 0.00 in0.0 mm
04:25 AM 39.5°F4.2°C 37.1°F2.8°C 91% 3.0 mph NW4.8 kmh NW -- 30.13 in1020.3 mb 0.00 in0.0 mm 0.00 in0.0 mm 0.00 in0.0 mm
04:24 AM 39.7°F4.3°C 37.3°F2.9°C 91% 3.0 mph WNW4.8 kmh WNW -- 30.13 in1020.3 mb 0.00 in0.0 mm 0.00 in0.0 mm 0.00 in0.0 mm
04:22 AM 39.9°F4.4°C 37.5°F3.1°C 91% 2.0 mph NW3.2 kmh NW -- 30.13 in1020.3 mb 0.00 in0.0 mm 0.00 in0.0 mm 0.00 in0.0 mm
04:21 AM 40.0°F4.4°C 37.5°F3.1°C 91% 3.0 mph NW4.8 kmh NW -- 30.13 in1020.3 mb 0.00 in0.0 mm 0.00 in0.0 mm 0.00 in0.0 mm
04:20 AM 40.0°F4.4°C 37.5°F3.1°C 91% 3.0 mph WNW4.8 kmh WNW -- 30.13 in1020.3 mb 0.00 in0.0 mm 0.00 in0.0 mm 0.00 in0.0 mm
04:19 AM 40.0°F4.4°C 37.5°F3.1°C 91% 2.0 mph NW3.2 kmh NW -- 30.13 in1020.3 mb 0.00 in0.0 mm 0.00 in0.0 mm 0.00 in0.0 mm
04:18 AM 40.0°F4.4°C 37.5°F3.1°C 91% 3.0 mph W4.8 kmh W -- 30.12 in1020.0 mb 0.00 in0.0 mm 0.00 in0.0 mm 0.00 in0.0 mm
04:17 AM 40.0°F4.4°C 37.5°F3.1°C 91% 2.0 mph W3.2 kmh W -- 30.12 in1020.0 mb 0.00 in0.0 mm 0.00 in0.0 mm 0.00 in0.0 mm
04:15 AM 40.2°F4.6°C 37.8°F3.2°C 91% 2.0 mph W3.2 kmh W -- 30.13 in1020.3 mb 0.00 in0.0 mm 0.00 in0.0 mm 0.00 in0.0 mm
04:14 AM 40.2°F4.6°C 37.8°F3.2°C 91% 3.0 mph WNW4.8 kmh WNW -- 30.13 in1020.3 mb 0.00 in0.0 mm 0.00 in0.0 mm 0.00 in0.0 mm
04:06 AM 40.2°F4.6°C 37.8°F3.2°C 91% 2.0 mph W3.2 kmh W -- 30.13 in1020.3 mb 0.00 in0.0 mm 0.00 in0.0 mm 0.00 in0.0 mm
04:05 AM 40.2°F4.6°C 37.8°F3.2°C 91% 2.0 mph WSW3.2 kmh WSW -- 30.13 in1020.3 mb 0.00 in0.0 mm 0.00 in0.0 mm 0.00 in0.0 mm
04:03 AM 40.2°F4.6°C 37.8°F3.2°C 91% 2.0 mph W3.2 kmh W -- 30.13 in1020.3 mb 0.00 in0.0 mm 0.00 in0.0 mm 0.00 in0.0 mm
04:02 AM 40.2°F4.6°C 37.8°F3.2°C 91% 2.0 mph W3.2 kmh W -- 30.12 in1020.0 mb 0.00 in0.0 mm 0.00 in0.0 mm 0.00 in0.0 mm
04:00 AM 40.2°F4.6°C 37.8°F3.2°C 91% 2.0 mph W3.2 kmh W -- 30.13 in1020.3 mb 0.00 in0.0 mm 0.00 in0.0 mm 0.00 in0.0 mm
03:59 AM 40.2°F4.6°C 37.8°F3.2°C 91% 3.0 mph W4.8 kmh W -- 30.13 in1020.3 mb 0.00 in0.0 mm 0.00 in0.0 mm 0.00 in0.0 mm
03:58 AM 40.2°F4.6°C 37.8°F3.2°C 91% 3.0 mph W4.8 kmh W -- 30.12 in1020.0 mb 0.00 in0.0 mm 0.00 in0.0 mm 0.00 in0.0 mm
03:57 AM 40.5°F4.7°C 37.7°F3.2°C 90% 2.0 mph W3.2 kmh W -- 30.12 in1020.0 mb 0.00 in0.0 mm 0.00 in0.0 mm 0.00 in0.0 mm
03:54 AM 40.5°F4.7°C 37.7°F3.2°C 90% 2.0 mph W3.2 kmh W -- 30.13 in1020.3 mb 0.00 in0.0 mm 0.00 in0.0 mm 0.00 in0.0 mm
03:49 AM 40.5°F4.7°C 37.7°F3.2°C 90% 2.0 mph W3.2 kmh W -- 30.12 in1020.0 mb 0.00 in0.0 mm 0.00 in0.0 mm 0.00 in0.0 mm
03:48 AM 40.5°F4.7°C 37.7°F3.2°C 90% 3.0 mph W4.8 kmh W -- 30.12 in1020.0 mb 0.00 in0.0 mm 0.00 in0.0 mm 0.00 in0.0 mm
03:47 AM 40.5°F4.7°C 37.7°F3.2°C 90% 2.0 mph WNW3.2 kmh WNW -- 30.12 in1020.0 mb 0.00 in0.0 mm 0.00 in0.0 mm 0.00 in0.0 mm
03:46 AM 40.5°F4.7°C 37.7°F3.2°C 90% 2.0 mph NW3.2 kmh NW -- 30.13 in1020.3 mb 0.00 in0.0 mm 0.00 in0.0 mm 0.00 in0.0 mm
03:45 AM 40.5°F4.7°C 37.7°F3.2°C 90% 2.0 mph W3.2 kmh W -- 30.13 in1020.3 mb 0.00 in0.0 mm 0.00 in0.0 mm 0.00 in0.0 mm
03:44 AM 40.5°F4.7°C 37.1°F2.8°C 88% 3.0 mph WNW4.8 kmh WNW -- 30.13 in1020.3 mb 0.00 in0.0 mm 0.00 in0.0 mm 0.00 in0.0 mm
03:43 AM 40.5°F4.7°C 37.1°F2.8°C 88% 3.0 mph NNW4.8 kmh NNW -- 30.13 in1020.3 mb 0.00 in0.0 mm 0.00 in0.0 mm 0.00 in0.0 mm
03:42 AM 40.5°F4.7°C 37.1°F2.8°C 88% 2.0 mph NNW3.2 kmh NNW -- 30.12 in1020.0 mb 0.00 in0.0 mm 0.00 in0.0 mm 0.00 in0.0 mm
03:41 AM 40.7°F4.8°C 37.3°F2.9°C 88% 2.0 mph WNW3.2 kmh WNW -- 30.12 in1020.0 mb 0.00 in0.0 mm 0.00 in0.0 mm 0.00 in0.0 mm
03:40 AM 40.7°F4.8°C 37.3°F2.9°C 88% 3.0 mph NNW4.8 kmh NNW -- 30.12 in1020.0 mb 0.00 in0.0 mm 0.00 in0.0 mm 0.00 in0.0 mm
03:37 AM 40.7°F4.8°C 37.3°F2.9°C 88% 3.0 mph NW4.8 kmh NW -- 30.12 in1020.0 mb 0.00 in0.0 mm 0.00 in0.0 mm 0.00 in0.0 mm
03:36 AM 40.9°F4.9°C 37.5°F3.1°C 88% 3.0 mph NNW4.8 kmh NNW -- 30.12 in1020.0 mb 0.00 in0.0 mm 0.00 in0.0 mm 0.00 in0.0 mm
03:35 AM 40.9°F4.9°C 37.5°F3.1°C 88% 3.0 mph NW4.8 kmh NW -- 30.12 in1020.0 mb 0.00 in0.0 mm 0.00 in0.0 mm 0.00 in0.0 mm
03:34 AM 40.9°F4.9°C 37.5°F3.1°C 88% 4.0 mph NNW6.4 kmh NNW -- 30.12 in1020.0 mb 0.00 in0.0 mm 0.00 in0.0 mm 0.00 in0.0 mm
03:33 AM 40.9°F4.9°C 37.5°F3.1°C 88% 4.0 mph NW6.4 kmh NW -- 30.12 in1020.0 mb 0.00 in0.0 mm 0.00 in0.0 mm 0.00 in0.0 mm
03:31 AM 40.9°F4.9°C 37.5°F3.1°C 88% 4.0 mph NNW6.4 kmh NNW -- 30.12 in1020.0 mb 0.00 in0.0 mm 0.00 in0.0 mm 0.00 in0.0 mm
03:29 AM 40.9°F4.9°C 37.5°F3.1°C 88% 4.0 mph NNW6.4 kmh NNW -- 30.13 in1020.3 mb 0.00 in0.0 mm 0.00 in0.0 mm 0.00 in0.0 mm
03:28 AM 40.9°F4.9°C 37.5°F3.1°C 88% 3.0 mph NW4.8 kmh NW -- 30.12 in1020.0 mb 0.00 in0.0 mm 0.00 in0.0 mm 0.00 in0.0 mm
03:27 AM 41.1°F5.1°C 37.9°F3.3°C 88% 3.0 mph NNE4.8 kmh NNE -- 30.12 in1020.0 mb 0.00 in0.0 mm 0.00 in0.0 mm 0.00 in0.0 mm
03:26 AM 41.1°F5.1°C 37.3°F2.9°C 86% 4.0 mph NNW6.4 kmh NNW -- 30.12 in1020.0 mb 0.00 in0.0 mm 0.00 in0.0 mm 0.00 in0.0 mm
03:25 AM 41.1°F5.1°C 37.3°F2.9°C 86% 3.0 mph 4.8 kmh -- 30.12 in1020.0 mb 0.00 in0.0 mm 0.00 in0.0 mm 0.00 in0.0 mm
03:24 AM 41.4°F5.2°C 37.4°F3.0°C 86% 3.0 mph NNE4.8 kmh NNE -- 30.12 in1020.0 mb 0.00 in0.0 mm 0.00 in0.0 mm 0.00 in0.0 mm
03:23 AM 41.4°F5.2°C 37.4°F3.0°C 86% 4.0 mph NNW6.4 kmh NNW -- 30.12 in1020.0 mb 0.00 in0.0 mm 0.00 in0.0 mm 0.00 in0.0 mm
03:21 AM 41.4°F5.2°C 37.4°F3.0°C 86% 3.0 mph NNW4.8 kmh NNW -- 30.12 in1020.0 mb 0.00 in0.0 mm 0.00 in0.0 mm 0.00 in0.0 mm
03:20 AM 41.4°F5.2°C 37.4°F3.0°C 86% 5.0 mph 8.0 kmh -- 30.11 in1019.6 mb 0.00 in0.0 mm 0.00 in0.0 mm 0.00 in0.0 mm
03:19 AM 41.5°F5.3°C 37.6°F3.1°C 86% 4.0 mph NNW6.4 kmh NNW -- 30.11 in1019.6 mb 0.00 in0.0 mm 0.00 in0.0 mm 0.00 in0.0 mm
03:18 AM 41.5°F5.3°C 37.6°F3.1°C 86% 4.0 mph NNW6.4 kmh NNW -- 30.12 in1020.0 mb 0.00 in0.0 mm 0.00 in0.0 mm 0.00 in0.0 mm
03:17 AM 41.5°F5.3°C 37.6°F3.1°C 86% 5.0 mph NNW8.0 kmh NNW -- 30.12 in1020.0 mb 0.00 in0.0 mm 0.00 in0.0 mm 0.00 in0.0 mm
03:16 AM 41.5°F5.3°C 37.6°F3.1°C 86% 4.0 mph 6.4 kmh -- 30.11 in1019.6 mb 0.00 in0.0 mm 0.00 in0.0 mm 0.00 in0.0 mm
03:15 AM 41.7°F5.4°C 37.8°F3.2°C 86% 3.0 mph 4.8 kmh -- 30.11 in1019.6 mb 0.00 in0.0 mm 0.00 in0.0 mm 0.00 in0.0 mm
03:14 AM 41.7°F5.4°C 37.8°F3.2°C 86% 3.0 mph NW4.8 kmh NW -- 30.12 in1020.0 mb 0.00 in0.0 mm 0.00 in0.0 mm 0.00 in0.0 mm
03:13 AM 41.7°F5.4°C 37.8°F3.2°C 86% 3.0 mph 4.8 kmh -- 30.12 in1020.0 mb 0.00 in0.0 mm 0.00 in0.0 mm 0.00 in0.0 mm
03:12 AM 41.9°F5.5°C 38.0°F3.3°C 86% 2.0 mph NW3.2 kmh NW -- 30.12 in1020.0 mb 0.00 in0.0 mm 0.00 in0.0 mm 0.00 in0.0 mm
03:11 AM 41.9°F5.5°C 38.0°F3.3°C 86% 3.0 mph NNW4.8 kmh NNW -- 30.12 in1020.0 mb 0.00 in0.0 mm 0.00 in0.0 mm 0.00 in0.0 mm
03:10 AM 42.1°F5.6°C 38.1°F3.4°C 86% 3.0 mph 4.8 kmh -- 30.11 in1019.6 mb 0.00 in0.0 mm 0.00 in0.0 mm 0.00 in0.0 mm
03:09 AM 42.1°F5.6°C 38.1°F3.4°C 86% 3.0 mph NNE4.8 kmh NNE -- 30.12 in1020.0 mb 0.00 in0.0 mm 0.00 in0.0 mm 0.00 in0.0 mm
03:07 AM 42.1°F5.6°C 38.1°F3.4°C 86% 4.0 mph NNW6.4 kmh NNW -- 30.12 in1020.0 mb 0.00 in0.0 mm 0.00 in0.0 mm 0.00 in0.0 mm
03:06 AM 42.1°F5.6°C 38.1°F3.4°C 86% 5.0 mph 8.0 kmh -- 30.12 in1020.0 mb 0.00 in0.0 mm 0.00 in0.0 mm 0.00 in0.0 mm
03:05 AM 42.1°F5.6°C 37.8°F3.2°C 85% 4.0 mph NW6.4 kmh NW -- 30.12 in1020.0 mb 0.00 in0.0 mm 0.00 in0.0 mm 0.00 in0.0 mm
03:04 AM 42.1°F5.6°C 37.8°F3.2°C 85% 5.0 mph NNW8.0 kmh NNW -- 30.12 in1020.0 mb 0.00 in0.0 mm 0.00 in0.0 mm 0.00 in0.0 mm
03:03 AM 42.3°F5.7°C 38.0°F3.3°C 85% 6.0 mph NNE9.7 kmh NNE -- 30.12 in1020.0 mb 0.00 in0.0 mm 0.00 in0.0 mm 0.00 in0.0 mm
03:02 AM 42.3°F5.7°C 38.0°F3.3°C 85% 5.0 mph 8.0 kmh -- 30.12 in1020.0 mb 0.00 in0.0 mm 0.00 in0.0 mm 0.00 in0.0 mm
03:01 AM 42.3°F5.7°C 38.0°F3.3°C 85% 4.0 mph NNE6.4 kmh NNE -- 30.12 in1020.0 mb 0.00 in0.0 mm 0.00 in0.0 mm 0.00 in0.0 mm
03:00 AM 42.3°F5.7°C 38.0°F3.3°C 85% 5.0 mph NNW8.0 kmh NNW -- 30.12 in1020.0 mb 0.00 in0.0 mm 0.00 in0.0 mm 0.00 in0.0 mm
02:59 AM 42.3°F5.7°C 38.0°F3.3°C 85% 6.0 mph 9.7 kmh -- 30.12 in1020.0 mb 0.00 in0.0 mm 0.00 in0.0 mm 0.00 in0.0 mm
02:58 AM 42.3°F5.7°C 38.0°F3.3°C 85% 5.0 mph 8.0 kmh -- 30.12 in1020.0 mb 0.00 in0.0 mm 0.00 in0.0 mm 0.00 in0.0 mm
02:57 AM 42.3°F5.7°C 38.0°F3.3°C 85% 6.0 mph NW9.7 kmh NW -- 30.12 in1020.0 mb 0.00 in0.0 mm 0.00 in0.0 mm 0.00 in0.0 mm
02:56 AM 42.3°F5.7°C 38.0°F3.3°C 85% 5.0 mph NW8.0 kmh NW -- 30.12 in1020.0 mb 0.00 in0.0 mm 0.00 in0.0 mm 0.00 in0.0 mm
02:55 AM 42.3°F5.7°C 38.0°F3.3°C 85% 4.0 mph 6.4 kmh -- 30.12 in1020.0 mb 0.00 in0.0 mm 0.00 in0.0 mm 0.00 in0.0 mm
02:54 AM 42.3°F5.7°C 38.0°F3.3°C 85% 3.0 mph 4.8 kmh -- 30.12 in1020.0 mb 0.00 in0.0 mm 0.00 in0.0 mm 0.00 in0.0 mm
02:53 AM 42.3°F5.7°C 38.0°F3.3°C 85% 5.0 mph NNW8.0 kmh NNW -- 30.12 in1020.0 mb 0.00 in0.0 mm 0.00 in0.0 mm 0.00 in0.0 mm
02:52 AM 42.3°F5.7°C 38.0°F3.3°C 85% 2.0 mph WNW3.2 kmh WNW -- 30.12 in1020.0 mb 0.00 in0.0 mm 0.00 in0.0 mm 0.00 in0.0 mm
02:51 AM 42.3°F5.7°C 38.0°F3.3°C 85% 4.0 mph NNE6.4 kmh NNE -- 30.12 in1020.0 mb 0.00 in0.0 mm 0.00 in0.0 mm 0.00 in0.0 mm
02:50 AM 42.3°F5.7°C 38.0°F3.3°C 85% 6.0 mph NW9.7 kmh NW -- 30.12 in1020.0 mb 0.00 in0.0 mm 0.00 in0.0 mm 0.00 in0.0 mm
02:49 AM 42.4°F5.8°C 38.2°F3.4°C 85% 5.0 mph NW8.0 kmh NW -- 30.12 in1020.0 mb 0.00 in0.0 mm 0.00 in0.0 mm 0.00 in0.0 mm
02:48 AM 42.4°F5.8°C 38.2°F3.4°C 85% 6.0 mph NNW9.7 kmh NNW -- 30.13 in1020.3 mb 0.00 in0.0 mm 0.00 in0.0 mm 0.00 in0.0 mm
02:47 AM 42.5°F5.8°C 37.6°F3.1°C 83% 5.0 mph NNW8.0 kmh NNW -- 30.13 in1020.3 mb 0.00 in0.0 mm 0.00 in0.0 mm 0.00 in0.0 mm
02:46 AM 42.5°F5.8°C 37.6°F3.1°C 83% 4.0 mph NNE6.4 kmh NNE -- 30.12 in1020.0 mb 0.00 in0.0 mm 0.00 in0.0 mm 0.00 in0.0 mm
02:45 AM 42.5°F5.8°C 37.6°F3.1°C 83% 5.0 mph NNW8.0 kmh NNW -- 30.12 in1020.0 mb 0.00 in0.0 mm 0.00 in0.0 mm 0.00 in0.0 mm
02:44 AM 42.5°F5.8°C 37.6°F3.1°C 83% 5.0 mph 8.0 kmh -- 30.12 in1020.0 mb 0.00 in0.0 mm 0.00 in0.0 mm 0.00 in0.0 mm
02:43 AM 42.7°F5.9°C 37.8°F3.2°C 83% 5.0 mph NNW8.0 kmh NNW -- 30.12 in1020.0 mb 0.00 in0.0 mm 0.00 in0.0 mm 0.00 in0.0 mm
02:42 AM 42.7°F5.9°C 37.8°F3.2°C 83% 4.0 mph NNE6.4 kmh NNE -- 30.12 in1020.0 mb 0.00 in0.0 mm 0.00 in0.0 mm 0.00 in0.0 mm
02:41 AM 42.7°F5.9°C 37.8°F3.2°C 83% 5.0 mph NNW8.0 kmh NNW -- 30.12 in1020.0 mb 0.00 in0.0 mm 0.00 in0.0 mm 0.00 in0.0 mm
02:40 AM 42.7°F5.9°C 37.8°F3.2°C 83% 6.0 mph 9.7 kmh -- 30.12 in1020.0 mb 0.00 in0.0 mm 0.00 in0.0 mm 0.00 in0.0 mm
02:39 AM 42.7°F5.9°C 37.8°F3.2°C 83% 6.0 mph NNW9.7 kmh NNW -- 30.12 in1020.0 mb 0.00 in0.0 mm 0.00 in0.0 mm 0.00 in0.0 mm
02:38 AM 42.7°F5.9°C 37.8°F3.2°C 83% 4.0 mph NNE6.4 kmh NNE -- 30.12 in1020.0 mb 0.00 in0.0 mm 0.00 in0.0 mm 0.00 in0.0 mm
02:37 AM 42.7°F5.9°C 37.8°F3.2°C 83% 7.0 mph NW11.3 kmh NW -- 30.12 in1020.0 mb 0.00 in0.0 mm 0.00 in0.0 mm 0.00 in0.0 mm
02:36 AM 42.7°F5.9°C 37.8°F3.2°C 83% 6.0 mph NNW9.7 kmh NNW -- 30.12 in1020.0 mb 0.00 in0.0 mm 0.00 in0.0 mm 0.00 in0.0 mm
02:35 AM 42.7°F5.9°C 37.8°F3.2°C 83% 6.0 mph NW9.7 kmh NW -- 30.12 in1020.0 mb 0.00 in0.0 mm 0.00 in0.0 mm 0.00 in0.0 mm
02:33 AM 42.7°F5.9°C 37.8°F3.2°C 83% 4.0 mph NNE6.4 kmh NNE -- 30.12 in1020.0 mb 0.00 in0.0 mm 0.00 in0.0 mm 0.00 in0.0 mm
02:32 AM 42.7°F5.9°C 37.8°F3.2°C 83% 6.0 mph NNW9.7 kmh NNW -- 30.11 in1019.6 mb 0.00 in0.0 mm 0.00 in0.0 mm 0.00 in0.0 mm
02:31 AM 42.7°F5.9°C 37.8°F3.2°C 83% 7.0 mph 11.3 kmh -- 30.12 in1020.0 mb 0.00 in0.0 mm 0.00 in0.0 mm 0.00 in0.0 mm
02:30 AM 42.7°F5.9°C 37.8°F3.2°C 83% 5.0 mph 8.0 kmh -- 30.12 in1020.0 mb 0.00 in0.0 mm 0.00 in0.0 mm 0.00 in0.0 mm
02:29 AM 42.7°F5.9°C 37.8°F3.2°C 83% 7.0 mph NNW11.3 kmh NNW -- 30.12 in1020.0 mb 0.00 in0.0 mm 0.00 in0.0 mm 0.00 in0.0 mm
02:28 AM 42.7°F5.9°C 37.8°F3.2°C 83% 6.0 mph NW9.7 kmh NW -- 30.12 in1020.0 mb 0.00 in0.0 mm 0.00 in0.0 mm 0.00 in0.0 mm
02:27 AM 42.7°F5.9°C 37.8°F3.2°C 83% 6.0 mph 9.7 kmh -- 30.12 in1020.0 mb 0.00 in0.0 mm 0.00 in0.0 mm 0.00 in0.0 mm
02:26 AM 42.7°F5.9°C 37.8°F3.2°C 83% 6.0 mph 9.7 kmh -- 30.11 in1019.6 mb 0.00 in0.0 mm 0.00 in0.0 mm 0.00 in0.0 mm
02:25 AM 42.7°F5.9°C 37.8°F3.2°C 83% 7.0 mph 11.3 kmh -- 30.12 in1020.0 mb 0.00 in0.0 mm 0.00 in0.0 mm 0.00 in0.0 mm
02:24 AM 42.7°F5.9°C 37.8°F3.2°C 83% 7.0 mph NW11.3 kmh NW -- 30.12 in1020.0 mb 0.00 in0.0 mm 0.00 in0.0 mm 0.00 in0.0 mm
02:23 AM 42.7°F5.9°C 37.8°F3.2°C 83% 6.0 mph NNW9.7 kmh NNW -- 30.12 in1020.0 mb 0.00 in0.0 mm 0.00 in0.0 mm 0.00 in0.0 mm
02:22 AM 43.0°F6.1°C 38.1°F3.4°C 83% 7.0 mph 11.3 kmh -- 30.12 in1020.0 mb 0.00 in0.0 mm 0.00 in0.0 mm 0.00 in0.0 mm
02:21 AM 43.0°F6.1°C 38.1°F3.4°C 83% 5.0 mph NW8.0 kmh NW -- 30.12 in1020.0 mb 0.00 in0.0 mm 0.00 in0.0 mm 0.00 in0.0 mm
02:20 AM 43.0°F6.1°C 38.1°F3.4°C 83% 5.0 mph NNE8.0 kmh NNE -- 30.12 in1020.0 mb 0.00 in0.0 mm 0.00 in0.0 mm 0.00 in0.0 mm
02:19 AM 43.0°F6.1°C 38.1°F3.4°C 83% 5.0 mph NNW8.0 kmh NNW -- 30.12 in1020.0 mb 0.00 in0.0 mm 0.00 in0.0 mm 0.00 in0.0 mm
02:18 AM 43.0°F6.1°C 38.1°F3.4°C 83% 5.0 mph 8.0 kmh -- 30.12 in1020.0 mb 0.00 in0.0 mm 0.00 in0.0 mm 0.00 in0.0 mm
02:17 AM 43.0°F6.1°C 38.1°F3.4°C 83% 4.0 mph NNE6.4 kmh NNE -- 30.12 in1020.0 mb 0.00 in0.0 mm 0.00 in0.0 mm 0.00 in0.0 mm
02:16 AM 43.0°F6.1°C 38.1°F3.4°C 83% 6.0 mph 9.7 kmh -- 30.12 in1020.0 mb 0.00 in0.0 mm 0.00 in0.0 mm 0.00 in0.0 mm
02:15 AM 43.0°F6.1°C 38.1°F3.4°C 83% 5.0 mph NNW8.0 kmh NNW -- 30.12 in1020.0 mb 0.00 in0.0 mm 0.00 in0.0 mm 0.00 in0.0 mm
02:14 AM 43.0°F6.1°C 38.1°F3.4°C 83% 5.0 mph NNE8.0 kmh NNE -- 30.12 in1020.0 mb 0.00 in0.0 mm 0.00 in0.0 mm 0.00 in0.0 mm
02:13 AM 43.0°F6.1°C 38.1°F3.4°C 83% 5.0 mph NNW8.0 kmh NNW -- 30.12 in1020.0 mb 0.00 in0.0 mm 0.00 in0.0 mm 0.00 in0.0 mm
02:12 AM 43.0°F6.1°C 38.1°F3.4°C 83% 6.0 mph 9.7 kmh -- 30.11 in1019.6 mb 0.00 in0.0 mm 0.00 in0.0 mm 0.00 in0.0 mm
02:11 AM 43.2°F6.2°C 38.3°F3.5°C 83% 7.0 mph NW11.3 kmh NW -- 30.11 in1019.6 mb 0.00 in0.0 mm 0.00 in0.0 mm 0.00 in0.0 mm
02:09 AM 43.2°F6.2°C 38.3°F3.5°C 83% 5.0 mph NNE8.0 kmh NNE -- 30.12 in1020.0 mb 0.00 in0.0 mm 0.00 in0.0 mm 0.00 in0.0 mm
02:07 AM 43.2°F6.2°C 37.7°F3.2°C 81% 4.0 mph NNE6.4 kmh NNE -- 30.12 in1020.0 mb 0.00 in0.0 mm 0.00 in0.0 mm 0.00 in0.0 mm
02:06 AM 43.2°F6.2°C 37.7°F3.2°C 81% 6.0 mph NNE9.7 kmh NNE -- 30.11 in1019.6 mb 0.00 in0.0 mm 0.00 in0.0 mm 0.00 in0.0 mm
02:05 AM 43.4°F6.3°C 37.8°F3.2°C 81% 7.0 mph NNW11.3 kmh NNW -- 30.12 in1020.0 mb 0.00 in0.0 mm 0.00 in0.0 mm 0.00 in0.0 mm
02:04 AM 43.4°F6.3°C 37.8°F3.2°C 81% 7.0 mph NE11.3 kmh NE -- 30.12 in1020.0 mb 0.00 in0.0 mm 0.00 in0.0 mm 0.00 in0.0 mm
02:03 AM 43.4°F6.3°C 37.8°F3.2°C 81% 6.0 mph 9.7 kmh -- 30.12 in1020.0 mb 0.00 in0.0 mm 0.00 in0.0 mm 0.00 in0.0 mm
02:02 AM 43.4°F6.3°C 37.8°F3.2°C 81% 8.0 mph 12.9 kmh -- 30.12 in1020.0 mb 0.00 in0.0 mm 0.00 in0.0 mm 0.00 in0.0 mm
02:01 AM 43.4°F6.3°C 37.8°F3.2°C 81% 6.0 mph NNW9.7 kmh NNW -- 30.12 in1020.0 mb 0.00 in0.0 mm 0.00 in0.0 mm 0.00 in0.0 mm
02:00 AM 43.4°F6.3°C 37.8°F3.2°C 81% 8.0 mph 12.9 kmh -- 30.11 in1019.6 mb 0.00 in0.0 mm 0.00 in0.0 mm 0.00 in0.0 mm
01:59 AM 43.4°F6.3°C 37.8°F3.2°C 81% 7.0 mph 11.3 kmh -- 30.12 in1020.0 mb 0.00 in0.0 mm 0.00 in0.0 mm 0.00 in0.0 mm
01:58 AM 43.4°F6.3°C 37.8°F3.2°C 81% 5.0 mph 8.0 kmh -- 30.12 in1020.0 mb 0.00 in0.0 mm 0.00 in0.0 mm 0.00 in0.0 mm
01:57 AM 43.4°F6.3°C 37.8°F3.2°C 81% 5.0 mph WNW8.0 kmh WNW -- 30.12 in1020.0 mb 0.00 in0.0 mm 0.00 in0.0 mm 0.00 in0.0 mm
01:56 AM 43.6°F6.4°C 38.0°F3.3°C 81% 5.0 mph NNW8.0 kmh NNW -- 30.12 in1020.0 mb 0.00 in0.0 mm 0.00 in0.0 mm 0.00 in0.0 mm
01:55 AM 43.6°F6.4°C 38.0°F3.3°C 81% 6.0 mph 9.7 kmh -- 30.12 in1020.0 mb 0.00 in0.0 mm 0.00 in0.0 mm 0.00 in0.0 mm
01:54 AM 43.6°F6.4°C 38.0°F3.3°C 81% 5.0 mph NE8.0 kmh NE -- 30.12 in1020.0 mb 0.00 in0.0 mm 0.00 in0.0 mm 0.00 in0.0 mm
01:53 AM 43.9°F6.6°C 38.4°F3.6°C 81% 7.0 mph 11.3 kmh -- 30.12 in1020.0 mb 0.00 in0.0 mm 0.00 in0.0 mm 0.00 in0.0 mm
01:52 AM 43.9°F6.6°C 38.4°F3.6°C 81% 6.0 mph NNW9.7 kmh NNW -- 30.12 in1020.0 mb 0.00 in0.0 mm 0.00 in0.0 mm 0.00 in0.0 mm
01:51 AM 43.9°F6.6°C 38.4°F3.6°C 81% 5.0 mph NNW8.0 kmh NNW -- 30.12 in1020.0 mb 0.00 in0.0 mm 0.00 in0.0 mm 0.00 in0.0 mm
01:50 AM 43.9°F6.6°C 38.4°F3.6°C 81% 6.0 mph NNW9.7 kmh NNW -- 30.12 in1020.0 mb 0.00 in0.0 mm 0.00 in0.0 mm 0.00 in0.0 mm
01:49 AM 43.9°F6.6°C 38.4°F3.6°C 81% 5.0 mph NNW8.0 kmh NNW -- 30.12 in1020.0 mb 0.00 in0.0 mm 0.00 in0.0 mm 0.00 in0.0 mm
01:48 AM 43.9°F6.6°C 38.4°F3.6°C 81% 9.0 mph 14.5 kmh -- 30.12 in1020.0 mb 0.00 in0.0 mm 0.00 in0.0 mm 0.00 in0.0 mm
01:47 AM 43.9°F6.6°C 38.4°F3.6°C 81% 6.0 mph 9.7 kmh -- 30.12 in1020.0 mb 0.00 in0.0 mm 0.00 in0.0 mm 0.00 in0.0 mm
01:45 AM 43.9°F6.6°C 38.4°F3.6°C 81% 7.0 mph 11.3 kmh -- 30.12 in1020.0 mb 0.00 in0.0 mm 0.00 in0.0 mm 0.00 in0.0 mm
01:44 AM 43.9°F6.6°C 38.4°F3.6°C 81% 5.0 mph NNE8.0 kmh NNE -- 30.11 in1019.6 mb 0.00 in0.0 mm 0.00 in0.0 mm 0.00 in0.0 mm
01:43 AM 43.9°F6.6°C 38.4°F3.6°C 81% 8.0 mph NNE12.9 kmh NNE -- 30.12 in1020.0 mb 0.00 in0.0 mm 0.00 in0.0 mm 0.00 in0.0 mm
01:42 AM 43.9°F6.6°C 38.4°F3.6°C 81% 4.0 mph WNW6.4 kmh WNW -- 30.11 in1019.6 mb 0.00 in0.0 mm 0.00 in0.0 mm 0.00 in0.0 mm
01:41 AM 44.0°F6.7°C 38.5°F3.6°C 81% 6.0 mph NW9.7 kmh NW -- 30.12 in1020.0 mb 0.00 in0.0 mm 0.00 in0.0 mm 0.00 in0.0 mm
01:40 AM 44.0°F6.7°C 38.5°F3.6°C 81% 7.0 mph 11.3 kmh -- 30.11 in1019.6 mb 0.00 in0.0 mm 0.00 in0.0 mm 0.00 in0.0 mm
01:39 AM 44.2°F6.8°C 38.7°F3.7°C 81% 6.0 mph NNW9.7 kmh NNW -- 30.11 in1019.6 mb 0.00 in0.0 mm 0.00 in0.0 mm 0.00 in0.0 mm
01:38 AM 44.2°F6.8°C 38.7°F3.7°C 81% 5.0 mph 8.0 kmh -- 30.11 in1019.6 mb 0.00 in0.0 mm 0.00 in0.0 mm 0.00 in0.0 mm
01:37 AM 44.2°F6.8°C 38.7°F3.7°C 81% 7.0 mph NNE11.3 kmh NNE -- 30.11 in1019.6 mb 0.00 in0.0 mm 0.00 in0.0 mm 0.00 in0.0 mm
01:36 AM 44.2°F6.8°C 38.7°F3.7°C 81% 5.0 mph NNE8.0 kmh NNE -- 30.11 in1019.6 mb 0.00 in0.0 mm 0.00 in0.0 mm 0.00 in0.0 mm
01:35 AM 44.2°F6.8°C 38.7°F3.7°C 81% 5.0 mph NNW8.0 kmh NNW -- 30.11 in1019.6 mb 0.00 in0.0 mm 0.00 in0.0 mm 0.00 in0.0 mm
01:34 AM 44.4°F6.9°C 38.9°F3.8°C 81% 7.0 mph NNE11.3 kmh NNE -- 30.11 in1019.6 mb 0.00 in0.0 mm 0.00 in0.0 mm 0.00 in0.0 mm
01:33 AM 44.4°F6.9°C 38.9°F3.8°C 81% 4.0 mph NW6.4 kmh NW -- 30.11 in1019.6 mb 0.00 in0.0 mm 0.00 in0.0 mm 0.00 in0.0 mm
01:32 AM 44.4°F6.9°C 38.9°F3.8°C 81% 8.0 mph NNE12.9 kmh NNE -- 30.11 in1019.6 mb 0.00 in0.0 mm 0.00 in0.0 mm 0.00 in0.0 mm
01:31 AM 44.4°F6.9°C 38.9°F3.8°C 81% 5.0 mph NNW8.0 kmh NNW -- 30.12 in1020.0 mb 0.00 in0.0 mm 0.00 in0.0 mm 0.00 in0.0 mm
01:30 AM 44.4°F6.9°C 38.9°F3.8°C 81% 4.0 mph 6.4 kmh -- 30.11 in1019.6 mb 0.00 in0.0 mm 0.00 in0.0 mm 0.00 in0.0 mm
01:29 AM 44.4°F6.9°C 38.9°F3.8°C 81% 11.0 mph NNW17.7 kmh NNW -- 30.11 in1019.6 mb 0.00 in0.0 mm 0.00 in0.0 mm 0.00 in0.0 mm
01:28 AM 44.4°F6.9°C 38.9°F3.8°C 81% 8.0 mph NNE12.9 kmh NNE -- 30.11 in1019.6 mb 0.00 in0.0 mm 0.00 in0.0 mm 0.00 in0.0 mm
01:27 AM 44.4°F6.9°C 38.9°F3.8°C 81% 10.0 mph NNW16.1 kmh NNW -- 30.12 in1020.0 mb 0.00 in0.0 mm 0.00 in0.0 mm 0.00 in0.0 mm
01:26 AM 44.4°F6.9°C 38.9°F3.8°C 81% 9.0 mph 14.5 kmh -- 30.11 in1019.6 mb 0.00 in0.0 mm 0.00 in0.0 mm 0.00 in0.0 mm
01:25 AM 44.4°F6.9°C 38.9°F3.8°C 81% 8.0 mph NW12.9 kmh NW -- 30.11 in1019.6 mb 0.00 in0.0 mm 0.00 in0.0 mm 0.00 in0.0 mm
01:24 AM 44.4°F6.9°C 39.5°F4.2°C 83% 8.0 mph NNE12.9 kmh NNE -- 30.11 in1019.6 mb 0.00 in0.0 mm 0.00 in0.0 mm 0.00 in0.0 mm
01:23 AM 44.4°F6.9°C 39.5°F4.2°C 83% 8.0 mph 12.9 kmh -- 30.11 in1019.6 mb 0.00 in0.0 mm 0.00 in0.0 mm 0.00 in0.0 mm
01:22 AM 44.4°F6.9°C 39.5°F4.2°C 83% 8.0 mph NNW12.9 kmh NNW -- 30.11 in1019.6 mb 0.00 in0.0 mm 0.00 in0.0 mm 0.00 in0.0 mm
01:21 AM 44.4°F6.9°C 39.5°F4.2°C 83% 8.0 mph NW12.9 kmh NW -- 30.11 in1019.6 mb 0.00 in0.0 mm 0.00 in0.0 mm 0.00 in0.0 mm
01:20 AM 44.4°F6.9°C 39.5°F4.2°C 83% 8.0 mph 12.9 kmh -- 30.11 in1019.6 mb 0.00 in0.0 mm 0.00 in0.0 mm 0.00 in0.0 mm
01:18 AM 44.4°F6.9°C 39.5°F4.2°C 83% 11.0 mph NNW17.7 kmh NNW -- 30.11 in1019.6 mb 0.00 in0.0 mm 0.00 in0.0 mm 0.00 in0.0 mm
01:17 AM 44.4°F6.9°C 39.5°F4.2°C 83% 13.0 mph NNE20.9 kmh NNE -- 30.11 in1019.6 mb 0.00 in0.0 mm 0.00 in0.0 mm 0.00 in0.0 mm
01:16 AM 44.4°F6.9°C 39.5°F4.2°C 83% 13.0 mph NNE20.9 kmh NNE -- 30.10 in1019.3 mb 0.00 in0.0 mm 0.00 in0.0 mm 0.00 in0.0 mm
01:15 AM 44.4°F6.9°C 39.5°F4.2°C 83% 13.0 mph NNW20.9 kmh NNW -- 30.10 in1019.3 mb 0.00 in0.0 mm 0.00 in0.0 mm 0.00 in0.0 mm
01:14 AM 44.4°F6.9°C 39.5°F4.2°C 83% 9.0 mph NNW14.5 kmh NNW -- 30.10 in1019.3 mb 0.00 in0.0 mm 0.00 in0.0 mm 0.00 in0.0 mm
01:13 AM 44.4°F6.9°C 39.5°F4.2°C 83% 9.0 mph 14.5 kmh -- 30.11 in1019.6 mb 0.00 in0.0 mm 0.00 in0.0 mm 0.00 in0.0 mm
01:12 AM 44.4°F6.9°C 39.5°F4.2°C 83% 7.0 mph NW11.3 kmh NW -- 30.10 in1019.3 mb 0.00 in0.0 mm 0.00 in0.0 mm 0.00 in0.0 mm
01:11 AM 44.4°F6.9°C 39.5°F4.2°C 83% 11.0 mph NNE17.7 kmh NNE -- 30.11 in1019.6 mb 0.00 in0.0 mm 0.00 in0.0 mm 0.00 in0.0 mm
01:10 AM 44.4°F6.9°C 39.5°F4.2°C 83% 10.0 mph 16.1 kmh -- 30.10 in1019.3 mb 0.00 in0.0 mm 0.00 in0.0 mm 0.00 in0.0 mm
01:09 AM 44.4°F6.9°C 39.5°F4.2°C 83% 11.0 mph NW17.7 kmh NW -- 30.10 in1019.3 mb 0.00 in0.0 mm 0.00 in0.0 mm 0.00 in0.0 mm
01:08 AM 44.4°F6.9°C 39.5°F4.2°C 83% 13.0 mph NNE20.9 kmh NNE -- 30.10 in1019.3 mb 0.00 in0.0 mm 0.00 in0.0 mm 0.00 in0.0 mm
01:07 AM 44.4°F6.9°C 39.5°F4.2°C 83% 11.0 mph NNW17.7 kmh NNW -- 30.10 in1019.3 mb 0.00 in0.0 mm 0.00 in0.0 mm 0.00 in0.0 mm
01:06 AM 44.4°F6.9°C 39.5°F4.2°C 83% 10.0 mph NW16.1 kmh NW -- 30.10 in1019.3 mb 0.00 in0.0 mm 0.00 in0.0 mm 0.00 in0.0 mm
01:05 AM 44.4°F6.9°C 39.5°F4.2°C 83% 12.0 mph NNE19.3 kmh NNE -- 30.10 in1019.3 mb 0.00 in0.0 mm 0.00 in0.0 mm 0.00 in0.0 mm
01:04 AM 44.4°F6.9°C 39.5°F4.2°C 83% 11.0 mph NNE17.7 kmh NNE -- 30.10 in1019.3 mb 0.00 in0.0 mm 0.00 in0.0 mm 0.00 in0.0 mm
01:03 AM 44.4°F6.9°C 39.5°F4.2°C 83% 11.0 mph NNW17.7 kmh NNW -- 30.10 in1019.3 mb 0.00 in0.0 mm 0.00 in0.0 mm 0.00 in0.0 mm
01:02 AM 44.4°F6.9°C 39.5°F4.2°C 83% 10.0 mph NNW16.1 kmh NNW -- 30.10 in1019.3 mb 0.00 in0.0 mm 0.00 in0.0 mm 0.00 in0.0 mm
01:01 AM 44.6°F7.0°C 39.7°F4.3°C 83% 9.0 mph NNW14.5 kmh NNW -- 30.11 in1019.6 mb 0.00 in0.0 mm 0.00 in0.0 mm 0.00 in0.0 mm
01:00 AM 44.6°F7.0°C 39.1°F3.9°C 81% 11.0 mph NNE17.7 kmh NNE -- 30.11 in1019.6 mb 0.00 in0.0 mm 0.00 in0.0 mm 0.00 in0.0 mm
12:59 AM 44.6°F7.0°C 39.1°F3.9°C 81% 8.0 mph NNW12.9 kmh NNW -- 30.11 in1019.6 mb 0.00 in0.0 mm 0.00 in0.0 mm 0.00 in0.0 mm
12:58 AM 44.6°F7.0°C 39.1°F3.9°C 81% 7.0 mph NNW11.3 kmh NNW -- 30.10 in1019.3 mb 0.00 in0.0 mm 0.00 in0.0 mm 0.00 in0.0 mm
12:57 AM 44.6°F7.0°C 39.1°F3.9°C 81% 10.0 mph 16.1 kmh -- 30.10 in1019.3 mb 0.00 in0.0 mm 0.00 in0.0 mm 0.00 in0.0 mm
12:56 AM 44.8°F7.1°C 39.2°F4.0°C 81% 9.0 mph NNW14.5 kmh NNW -- 30.11 in1019.6 mb 0.00 in0.0 mm 0.00 in0.0 mm 0.00 in0.0 mm
12:55 AM 44.8°F7.1°C 39.2°F4.0°C 81% 8.0 mph NNW12.9 kmh NNW -- 30.11 in1019.6 mb 0.00 in0.0 mm 0.00 in0.0 mm 0.00 in0.0 mm
12:54 AM 44.8°F7.1°C 39.2°F4.0°C 81% 8.0 mph 12.9 kmh -- 30.11 in1019.6 mb 0.00 in0.0 mm 0.00 in0.0 mm 0.00 in0.0 mm
12:53 AM 45.0°F7.2°C 39.4°F4.1°C 81% 8.0 mph 12.9 kmh -- 30.11 in1019.6 mb 0.00 in0.0 mm 0.00 in0.0 mm 0.00 in0.0 mm
12:52 AM 45.0°F7.2°C 39.4°F4.1°C 81% 9.0 mph NW14.5 kmh NW -- 30.11 in1019.6 mb 0.00 in0.0 mm 0.00 in0.0 mm 0.00 in0.0 mm
12:51 AM 45.0°F7.2°C 39.4°F4.1°C 81% 13.0 mph NW20.9 kmh NW -- 30.11 in1019.6 mb 0.00 in0.0 mm 0.00 in0.0 mm 0.00 in0.0 mm
12:50 AM 45.0°F7.2°C 39.4°F4.1°C 81% 15.0 mph NNW24.1 kmh NNW -- 30.10 in1019.3 mb 0.00 in0.0 mm 0.00 in0.0 mm 0.00 in0.0 mm
12:49 AM 45.0°F7.2°C 39.4°F4.1°C 81% 10.0 mph NNW16.1 kmh NNW -- 30.11 in1019.6 mb 0.00 in0.0 mm 0.00 in0.0 mm 0.00 in0.0 mm
12:48 AM 45.0°F7.2°C 39.4°F4.1°C 81% 13.0 mph NNE20.9 kmh NNE -- 30.11 in1019.6 mb 0.00 in0.0 mm 0.00 in0.0 mm 0.00 in0.0 mm
12:47 AM 45.0°F7.2°C 39.4°F4.1°C 81% 7.0 mph 11.3 kmh -- 30.11 in1019.6 mb 0.00 in0.0 mm 0.00 in0.0 mm 0.00 in0.0 mm
12:46 AM 45.0°F7.2°C 39.1°F3.9°C 80% 7.0 mph NNE11.3 kmh NNE -- 30.11 in1019.6 mb 0.00 in0.0 mm 0.00 in0.0 mm 0.00 in0.0 mm
12:45 AM 45.0°F7.2°C 39.1°F3.9°C 80% 6.0 mph NNE9.7 kmh NNE -- 30.11 in1019.6 mb 0.00 in0.0 mm 0.00 in0.0 mm 0.00 in0.0 mm
12:44 AM 45.2°F7.3°C 38.9°F3.8°C 79% 10.0 mph NNW16.1 kmh NNW -- 30.11 in1019.6 mb 0.00 in0.0 mm 0.00 in0.0 mm 0.00 in0.0 mm
12:43 AM 45.2°F7.3°C 38.9°F3.8°C 79% 8.0 mph 12.9 kmh -- 30.11 in1019.6 mb 0.00 in0.0 mm 0.00 in0.0 mm 0.00 in0.0 mm
12:42 AM 45.5°F7.5°C 39.3°F4.1°C 79% 11.0 mph 17.7 kmh -- 30.11 in1019.6 mb 0.00 in0.0 mm 0.00 in0.0 mm 0.00 in0.0 mm
12:41 AM 45.5°F7.5°C 39.3°F4.1°C 79% 7.0 mph 11.3 kmh -- 30.11 in1019.6 mb 0.00 in0.0 mm 0.00 in0.0 mm 0.00 in0.0 mm
12:40 AM 45.5°F7.5°C 39.3°F4.1°C 79% 7.0 mph NNW11.3 kmh NNW -- 30.10 in1019.3 mb 0.00 in0.0 mm 0.00 in0.0 mm 0.00 in0.0 mm
12:39 AM 45.5°F7.5°C 39.3°F4.1°C 79% 9.0 mph NNW14.5 kmh NNW -- 30.10 in1019.3 mb 0.00 in0.0 mm 0.00 in0.0 mm 0.00 in0.0 mm
12:38 AM 45.7°F7.6°C 39.5°F4.2°C 79% 8.0 mph NNE12.9 kmh NNE -- 30.10 in1019.3 mb 0.00 in0.0 mm 0.00 in0.0 mm 0.00 in0.0 mm
12:37 AM 45.7°F7.6°C 39.1°F3.9°C 78% 9.0 mph 14.5 kmh -- 30.10 in1019.3 mb 0.00 in0.0 mm 0.00 in0.0 mm 0.00 in0.0 mm
12:36 AM 45.9°F7.7°C 39.3°F4.1°C 78% 8.0 mph NNE12.9 kmh NNE -- 30.10 in1019.3 mb 0.00 in0.0 mm 0.00 in0.0 mm 0.00 in0.0 mm
12:35 AM 45.9°F7.7°C 39.3°F4.1°C 78% 9.0 mph NNE14.5 kmh NNE -- 30.10 in1019.3 mb 0.00 in0.0 mm 0.00 in0.0 mm 0.00 in0.0 mm
12:34 AM 45.9°F7.7°C 39.3°F4.1°C 78% 11.0 mph NNE17.7 kmh NNE -- 30.10 in1019.3 mb 0.00 in0.0 mm 0.00 in0.0 mm 0.00 in0.0 mm
12:33 AM 45.9°F7.7°C 39.3°F4.1°C 78% 11.0 mph NW17.7 kmh NW -- 30.10 in1019.3 mb 0.00 in0.0 mm 0.00 in0.0 mm 0.00 in0.0 mm
12:32 AM 45.9°F7.7°C 39.3°F4.1°C 78% 10.0 mph NNW16.1 kmh NNW -- 30.11 in1019.6 mb 0.00 in0.0 mm 0.00 in0.0 mm 0.00 in0.0 mm
12:31 AM 46.1°F7.8°C 39.5°F4.2°C 78% 15.0 mph NNE24.1 kmh NNE -- 30.11 in1019.6 mb 0.00 in0.0 mm 0.00 in0.0 mm 0.00 in0.0 mm
12:30 AM 46.1°F7.8°C 38.8°F3.8°C 76% 12.0 mph NNW19.3 kmh NNW -- 30.11 in1019.6 mb 0.00 in0.0 mm 0.00 in0.0 mm 0.00 in0.0 mm
12:29 AM 46.1°F7.8°C 38.8°F3.8°C 76% 11.0 mph NNW17.7 kmh NNW -- 30.11 in1019.6 mb 0.00 in0.0 mm 0.00 in0.0 mm 0.00 in0.0 mm
12:28 AM 46.4°F8.0°C 39.2°F4.0°C 76% 11.0 mph NNW17.7 kmh NNW -- 30.11 in1019.6 mb 0.00 in0.0 mm 0.00 in0.0 mm 0.00 in0.0 mm
12:27 AM 46.4°F8.0°C 39.2°F4.0°C 76% 13.0 mph WNW20.9 kmh WNW -- 30.11 in1019.6 mb 0.00 in0.0 mm 0.00 in0.0 mm 0.00 in0.0 mm
12:26 AM 46.5°F8.1°C 39.0°F3.9°C 75% 8.0 mph NNW12.9 kmh NNW -- 30.11 in1019.6 mb 0.00 in0.0 mm 0.00 in0.0 mm 0.00 in0.0 mm
12:25 AM 46.5°F8.1°C 39.0°F3.9°C 75% 11.0 mph NNE17.7 kmh NNE -- 30.11 in1019.6 mb 0.00 in0.0 mm 0.00 in0.0 mm 0.00 in0.0 mm
12:24 AM 46.7°F8.2°C 39.2°F4.0°C 75% 9.0 mph NNE14.5 kmh NNE -- 30.11 in1019.6 mb 0.00 in0.0 mm 0.00 in0.0 mm 0.00 in0.0 mm
12:23 AM 46.7°F8.2°C 39.2°F4.0°C 75% 8.0 mph NNW12.9 kmh NNW -- 30.11 in1019.6 mb 0.00 in0.0 mm 0.00 in0.0 mm 0.00 in0.0 mm
12:22 AM 46.7°F8.2°C 39.2°F4.0°C 75% 9.0 mph NW14.5 kmh NW -- 30.11 in1019.6 mb 0.00 in0.0 mm 0.00 in0.0 mm 0.00 in0.0 mm
12:21 AM 46.7°F8.2°C 39.2°F4.0°C 75% 12.0 mph 19.3 kmh -- 30.11 in1019.6 mb 0.00 in0.0 mm 0.00 in0.0 mm 0.00 in0.0 mm
12:20 AM 46.9°F8.3°C 39.3°F4.1°C 75% 12.0 mph 19.3 kmh -- 30.11 in1019.6 mb 0.00 in0.0 mm 0.00 in0.0 mm 0.00 in0.0 mm
12:19 AM 46.9°F8.3°C 39.3°F4.1°C 75% 15.0 mph 24.1 kmh -- 30.11 in1019.6 mb 0.00 in0.0 mm 0.00 in0.0 mm 0.00 in0.0 mm
12:18 AM 46.9°F8.3°C 39.3°F4.1°C 75% 12.0 mph NW19.3 kmh NW -- 30.11 in1019.6 mb 0.00 in0.0 mm 0.00 in0.0 mm 0.00 in0.0 mm
12:17 AM 46.9°F8.3°C 39.3°F4.1°C 75% 11.0 mph NNW17.7 kmh NNW -- 30.11 in1019.6 mb 0.00 in0.0 mm 0.00 in0.0 mm 0.00 in0.0 mm
12:16 AM 46.9°F8.3°C 39.3°F4.1°C 75% 13.0 mph NNE20.9 kmh NNE -- 30.11 in1019.6 mb 0.00 in0.0 mm 0.00 in0.0 mm 0.00 in0.0 mm
12:15 AM 46.9°F8.3°C 39.3°F4.1°C 75% 15.0 mph WNW24.1 kmh WNW -- 30.11 in1019.6 mb 0.00 in0.0 mm 0.00 in0.0 mm 0.00 in0.0 mm
12:14 AM 46.9°F8.3°C 39.3°F4.1°C 75% 7.0 mph 11.3 kmh -- 30.11 in1019.6 mb 0.00 in0.0 mm 0.00 in0.0 mm 0.00 in0.0 mm
12:13 AM 46.9°F8.3°C 39.3°F4.1°C 75% 9.0 mph NNE14.5 kmh NNE -- 30.11 in1019.6 mb 0.00 in0.0 mm 0.00 in0.0 mm 0.00 in0.0 mm
12:12 AM 46.9°F8.3°C 39.3°F4.1°C 75% 14.0 mph NNW22.5 kmh NNW -- 30.11 in1019.6 mb 0.00 in0.0 mm 0.00 in0.0 mm 0.00 in0.0 mm
12:11 AM 46.9°F8.3°C 39.3°F4.1°C 75% 9.0 mph NNW14.5 kmh NNW -- 30.11 in1019.6 mb 0.00 in0.0 mm 0.00 in0.0 mm 0.00 in0.0 mm
12:10 AM 46.9°F8.3°C 39.3°F4.1°C 75% 13.0 mph NW20.9 kmh NW -- 30.11 in1019.6 mb 0.00 in0.0 mm 0.00 in0.0 mm 0.00 in0.0 mm
12:09 AM 46.9°F8.3°C 39.3°F4.1°C 75% 13.0 mph 20.9 kmh -- 30.11 in1019.6 mb 0.00 in0.0 mm 0.00 in0.0 mm 0.00 in0.0 mm
12:08 AM 46.9°F8.3°C 39.3°F4.1°C 75% 11.0 mph NNW17.7 kmh NNW -- 30.11 in1019.6 mb 0.00 in0.0 mm 0.00 in0.0 mm 0.00 in0.0 mm
12:07 AM 46.9°F8.3°C 39.3°F4.1°C 75% 17.0 mph NNE27.4 kmh NNE -- 30.11 in1019.6 mb 0.00 in0.0 mm 0.00 in0.0 mm 0.00 in0.0 mm
12:06 AM 46.9°F8.3°C 39.3°F4.1°C 75% 12.0 mph 19.3 kmh -- 30.11 in1019.6 mb 0.00 in0.0 mm 0.00 in0.0 mm 0.00 in0.0 mm
12:05 AM 46.9°F8.3°C 39.3°F4.1°C 75% 15.0 mph 24.1 kmh -- 30.11 in1019.6 mb 0.00 in0.0 mm 0.00 in0.0 mm 0.00 in0.0 mm
12:04 AM 46.9°F8.3°C 39.3°F4.1°C 75% 16.0 mph NNW25.7 kmh NNW -- 30.11 in1019.6 mb 0.00 in0.0 mm 0.00 in0.0 mm 0.00 in0.0 mm
12:02 AM 46.9°F8.3°C 39.3°F4.1°C 75% 11.0 mph 17.7 kmh -- 30.11 in1019.6 mb 0.00 in0.0 mm 0.00 in0.0 mm 0.00 in0.0 mm
12:01 AM 46.9°F8.3°C 39.3°F4.1°C 75% 14.0 mph NNW22.5 kmh NNW -- 30.11 in1019.6 mb 0.00 in0.0 mm 0.00 in0.0 mm 0.00 in0.0 mm
12:00 AM 46.9°F8.3°C 39.3°F4.1°C 75% 13.0 mph 20.9 kmh -- 30.11 in1019.6 mb 0.00 in0.0 mm 0.00 in0.0 mm 0.00 in0.0 mm